<?xml version="1.0" encoding="UTF-8" standalone="no" ?>
<gpx xmlns="http://www.topografix.com/GPX/1/1" xmlns:xsi="http://www.w3.org/2001/XMLSchema-instance" xsi:schemaLocation="http://www.topografix.com/GPX/1/1 http://www.topografix.com/GPX/1/1/gpx.xsd" version="1.1" creator="VisuGPX - https://www.visugpx.com">
  <metadata>
    <name>COLPO</name>
    <desc><![CDATA[parking devant l\'église/mairie: prendre derriére l\'église GR 38 et au bout de 500 m prendre à droite rue de la gare, ancienne ligne de chemin de fer:pas obligé de faire le tour des 2 étangs ceci pour raccourcir la rando.]]></desc>
  </metadata>
  <trk>
    <name><![CDATA[COLPO_1]]></name>
    <trkseg>
      <trkpt lat="47.81812" lon="-2.80987">
        <ele>96</ele>
        <time>2013-05-24T12:02:09</time>
      </trkpt>
      <trkpt lat="47.81812" lon="-2.80988">
        <ele>98</ele>
        <time>2013-05-24T12:02:18</time>
      </trkpt>
      <trkpt lat="47.81812" lon="-2.80988">
        <ele>96</ele>
        <time>2013-05-24T12:02:28</time>
      </trkpt>
      <trkpt lat="47.81812" lon="-2.80988">
        <ele>95</ele>
        <time>2013-05-24T12:02:38</time>
      </trkpt>
      <trkpt lat="47.81812" lon="-2.80988">
        <ele>95</ele>
        <time>2013-05-24T12:02:48</time>
      </trkpt>
      <trkpt lat="47.81812" lon="-2.80989">
        <ele>96</ele>
        <time>2013-05-24T12:02:58</time>
      </trkpt>
      <trkpt lat="47.81812" lon="-2.80989">
        <ele>96</ele>
        <time>2013-05-24T12:03:08</time>
      </trkpt>
      <trkpt lat="47.81812" lon="-2.80989">
        <ele>95</ele>
        <time>2013-05-24T12:03:19</time>
      </trkpt>
      <trkpt lat="47.81812" lon="-2.80988">
        <ele>95</ele>
        <time>2013-05-24T12:03:28</time>
      </trkpt>
      <trkpt lat="47.81812" lon="-2.80988">
        <ele>97</ele>
        <time>2013-05-24T12:03:39</time>
      </trkpt>
      <trkpt lat="47.81812" lon="-2.80987">
        <ele>96</ele>
        <time>2013-05-24T12:03:49</time>
      </trkpt>
      <trkpt lat="47.81812" lon="-2.80988">
        <ele>96</ele>
        <time>2013-05-24T12:03:59</time>
      </trkpt>
      <trkpt lat="47.81812" lon="-2.80988">
        <ele>96</ele>
        <time>2013-05-24T12:04:09</time>
      </trkpt>
      <trkpt lat="47.81812" lon="-2.80988">
        <ele>96</ele>
        <time>2013-05-24T12:04:19</time>
      </trkpt>
      <trkpt lat="47.81812" lon="-2.80988">
        <ele>96</ele>
        <time>2013-05-24T12:04:29</time>
      </trkpt>
      <trkpt lat="47.81812" lon="-2.80988">
        <ele>96</ele>
        <time>2013-05-24T12:04:39</time>
      </trkpt>
      <trkpt lat="47.81812" lon="-2.80987">
        <ele>96</ele>
        <time>2013-05-24T12:04:49</time>
      </trkpt>
      <trkpt lat="47.81812" lon="-2.80987">
        <ele>95</ele>
        <time>2013-05-24T12:04:59</time>
      </trkpt>
      <trkpt lat="47.81812" lon="-2.80986">
        <ele>96</ele>
        <time>2013-05-24T12:05:09</time>
      </trkpt>
      <trkpt lat="47.81812" lon="-2.80986">
        <ele>97</ele>
        <time>2013-05-24T12:05:19</time>
      </trkpt>
      <trkpt lat="47.81812" lon="-2.80987">
        <ele>98</ele>
        <time>2013-05-24T12:05:29</time>
      </trkpt>
      <trkpt lat="47.81812" lon="-2.80987">
        <ele>95</ele>
        <time>2013-05-24T12:05:39</time>
      </trkpt>
      <trkpt lat="47.81812" lon="-2.80987">
        <ele>97</ele>
        <time>2013-05-24T12:05:49</time>
      </trkpt>
      <trkpt lat="47.81812" lon="-2.80985">
        <ele>97</ele>
        <time>2013-05-24T12:05:59</time>
      </trkpt>
      <trkpt lat="47.81812" lon="-2.80986">
        <ele>97</ele>
        <time>2013-05-24T12:06:09</time>
      </trkpt>
      <trkpt lat="47.81812" lon="-2.80986">
        <ele>97</ele>
        <time>2013-05-24T12:06:19</time>
      </trkpt>
      <trkpt lat="47.81812" lon="-2.80985">
        <ele>97</ele>
        <time>2013-05-24T12:06:29</time>
      </trkpt>
      <trkpt lat="47.81812" lon="-2.80986">
        <ele>97</ele>
        <time>2013-05-24T12:06:40</time>
      </trkpt>
      <trkpt lat="47.81812" lon="-2.80987">
        <ele>97</ele>
        <time>2013-05-24T12:06:50</time>
      </trkpt>
      <trkpt lat="47.81812" lon="-2.80988">
        <ele>97</ele>
        <time>2013-05-24T12:07:00</time>
      </trkpt>
      <trkpt lat="47.81812" lon="-2.80989">
        <ele>97</ele>
        <time>2013-05-24T12:07:10</time>
      </trkpt>
      <trkpt lat="47.81812" lon="-2.80989">
        <ele>97</ele>
        <time>2013-05-24T12:07:20</time>
      </trkpt>
      <trkpt lat="47.81812" lon="-2.8099">
        <ele>97</ele>
        <time>2013-05-24T12:07:30</time>
      </trkpt>
      <trkpt lat="47.81812" lon="-2.80991">
        <ele>97</ele>
        <time>2013-05-24T12:07:40</time>
      </trkpt>
      <trkpt lat="47.81812" lon="-2.80991">
        <ele>98</ele>
        <time>2013-05-24T12:07:50</time>
      </trkpt>
      <trkpt lat="47.81812" lon="-2.80991">
        <ele>98</ele>
        <time>2013-05-24T12:08:00</time>
      </trkpt>
      <trkpt lat="47.81812" lon="-2.80989">
        <ele>97</ele>
        <time>2013-05-24T12:08:10</time>
      </trkpt>
      <trkpt lat="47.81812" lon="-2.80987">
        <ele>95</ele>
        <time>2013-05-24T12:08:20</time>
      </trkpt>
      <trkpt lat="47.81812" lon="-2.80987">
        <ele>96</ele>
        <time>2013-05-24T12:08:30</time>
      </trkpt>
      <trkpt lat="47.81812" lon="-2.80986">
        <ele>97</ele>
        <time>2013-05-24T12:08:40</time>
      </trkpt>
      <trkpt lat="47.81812" lon="-2.8099">
        <ele>97</ele>
        <time>2013-05-24T12:08:50</time>
      </trkpt>
      <trkpt lat="47.81812" lon="-2.80989">
        <ele>97</ele>
        <time>2013-05-24T12:09:00</time>
      </trkpt>
      <trkpt lat="47.81812" lon="-2.80985">
        <ele>98</ele>
        <time>2013-05-24T12:09:10</time>
      </trkpt>
      <trkpt lat="47.81812" lon="-2.80984">
        <ele>97</ele>
        <time>2013-05-24T12:09:20</time>
      </trkpt>
      <trkpt lat="47.81812" lon="-2.80982">
        <ele>96</ele>
        <time>2013-05-24T12:09:31</time>
      </trkpt>
      <trkpt lat="47.81812" lon="-2.80977">
        <ele>96</ele>
        <time>2013-05-24T12:09:41</time>
      </trkpt>
      <trkpt lat="47.81811" lon="-2.80966">
        <ele>95</ele>
        <time>2013-05-24T12:09:51</time>
      </trkpt>
      <trkpt lat="47.8181" lon="-2.80952">
        <ele>97</ele>
        <time>2013-05-24T12:10:01</time>
      </trkpt>
      <trkpt lat="47.81809" lon="-2.80937">
        <ele>97</ele>
        <time>2013-05-24T12:10:11</time>
      </trkpt>
      <trkpt lat="47.81808" lon="-2.80926">
        <ele>97</ele>
        <time>2013-05-24T12:10:21</time>
      </trkpt>
      <trkpt lat="47.81808" lon="-2.80911">
        <ele>97</ele>
        <time>2013-05-24T12:10:31</time>
      </trkpt>
      <trkpt lat="47.81809" lon="-2.80889">
        <ele>98</ele>
        <time>2013-05-24T12:10:41</time>
      </trkpt>
      <trkpt lat="47.81812" lon="-2.80875">
        <ele>97</ele>
        <time>2013-05-24T12:10:51</time>
      </trkpt>
      <trkpt lat="47.81814" lon="-2.80862">
        <ele>98</ele>
        <time>2013-05-24T12:11:01</time>
      </trkpt>
      <trkpt lat="47.81814" lon="-2.8085">
        <ele>98</ele>
        <time>2013-05-24T12:11:11</time>
      </trkpt>
      <trkpt lat="47.81813" lon="-2.80838">
        <ele>97</ele>
        <time>2013-05-24T12:11:21</time>
      </trkpt>
      <trkpt lat="47.81812" lon="-2.80819">
        <ele>100</ele>
        <time>2013-05-24T12:11:32</time>
      </trkpt>
      <trkpt lat="47.81811" lon="-2.80804">
        <ele>99</ele>
        <time>2013-05-24T12:11:42</time>
      </trkpt>
      <trkpt lat="47.81796" lon="-2.80788">
        <ele>98</ele>
        <time>2013-05-24T12:11:52</time>
      </trkpt>
      <trkpt lat="47.81797" lon="-2.80775">
        <ele>98</ele>
        <time>2013-05-24T12:12:02</time>
      </trkpt>
      <trkpt lat="47.818" lon="-2.80761">
        <ele>99</ele>
        <time>2013-05-24T12:12:12</time>
      </trkpt>
      <trkpt lat="47.81802" lon="-2.80751">
        <ele>98</ele>
        <time>2013-05-24T12:12:22</time>
      </trkpt>
      <trkpt lat="47.81804" lon="-2.80745">
        <ele>100</ele>
        <time>2013-05-24T12:12:32</time>
      </trkpt>
      <trkpt lat="47.81804" lon="-2.8074">
        <ele>100</ele>
        <time>2013-05-24T12:12:42</time>
      </trkpt>
      <trkpt lat="47.81807" lon="-2.80727">
        <ele>100</ele>
        <time>2013-05-24T12:12:52</time>
      </trkpt>
      <trkpt lat="47.81812" lon="-2.80713">
        <ele>98</ele>
        <time>2013-05-24T12:13:02</time>
      </trkpt>
      <trkpt lat="47.81816" lon="-2.80698">
        <ele>98</ele>
        <time>2013-05-24T12:13:12</time>
      </trkpt>
      <trkpt lat="47.81824" lon="-2.80684">
        <ele>99</ele>
        <time>2013-05-24T12:13:23</time>
      </trkpt>
      <trkpt lat="47.81833" lon="-2.80671">
        <ele>97</ele>
        <time>2013-05-24T12:13:32</time>
      </trkpt>
      <trkpt lat="47.81841" lon="-2.80658">
        <ele>97</ele>
        <time>2013-05-24T12:13:43</time>
      </trkpt>
      <trkpt lat="47.81849" lon="-2.80645">
        <ele>100</ele>
        <time>2013-05-24T12:13:53</time>
      </trkpt>
      <trkpt lat="47.81858" lon="-2.80633">
        <ele>98</ele>
        <time>2013-05-24T12:14:03</time>
      </trkpt>
      <trkpt lat="47.81867" lon="-2.8062">
        <ele>96</ele>
        <time>2013-05-24T12:14:13</time>
      </trkpt>
      <trkpt lat="47.81876" lon="-2.80606">
        <ele>98</ele>
        <time>2013-05-24T12:14:23</time>
      </trkpt>
      <trkpt lat="47.81885" lon="-2.80593">
        <ele>94</ele>
        <time>2013-05-24T12:14:33</time>
      </trkpt>
      <trkpt lat="47.81895" lon="-2.80578">
        <ele>97</ele>
        <time>2013-05-24T12:14:43</time>
      </trkpt>
      <trkpt lat="47.81905" lon="-2.80564">
        <ele>96</ele>
        <time>2013-05-24T12:14:53</time>
      </trkpt>
      <trkpt lat="47.81915" lon="-2.80551">
        <ele>97</ele>
        <time>2013-05-24T12:15:03</time>
      </trkpt>
      <trkpt lat="47.81924" lon="-2.80538">
        <ele>98</ele>
        <time>2013-05-24T12:15:13</time>
      </trkpt>
      <trkpt lat="47.81931" lon="-2.80526">
        <ele>96</ele>
        <time>2013-05-24T12:15:23</time>
      </trkpt>
      <trkpt lat="47.8194" lon="-2.80504">
        <ele>97</ele>
        <time>2013-05-24T12:15:33</time>
      </trkpt>
      <trkpt lat="47.81942" lon="-2.80486">
        <ele>95</ele>
        <time>2013-05-24T12:15:43</time>
      </trkpt>
      <trkpt lat="47.81944" lon="-2.80467">
        <ele>93</ele>
        <time>2013-05-24T12:15:53</time>
      </trkpt>
      <trkpt lat="47.81945" lon="-2.80448">
        <ele>94</ele>
        <time>2013-05-24T12:16:03</time>
      </trkpt>
      <trkpt lat="47.81947" lon="-2.80429">
        <ele>95</ele>
        <time>2013-05-24T12:16:14</time>
      </trkpt>
      <trkpt lat="47.81949" lon="-2.80411">
        <ele>93</ele>
        <time>2013-05-24T12:16:24</time>
      </trkpt>
      <trkpt lat="47.81951" lon="-2.8039">
        <ele>93</ele>
        <time>2013-05-24T12:16:34</time>
      </trkpt>
      <trkpt lat="47.81953" lon="-2.8037">
        <ele>93</ele>
        <time>2013-05-24T12:16:44</time>
      </trkpt>
      <trkpt lat="47.81955" lon="-2.80353">
        <ele>91</ele>
        <time>2013-05-24T12:16:54</time>
      </trkpt>
      <trkpt lat="47.81956" lon="-2.80334">
        <ele>93</ele>
        <time>2013-05-24T12:17:04</time>
      </trkpt>
      <trkpt lat="47.81956" lon="-2.80326">
        <ele>93</ele>
        <time>2013-05-24T12:17:14</time>
      </trkpt>
      <trkpt lat="47.81959" lon="-2.80322">
        <ele>93</ele>
        <time>2013-05-24T12:17:24</time>
      </trkpt>
      <trkpt lat="47.81953" lon="-2.80325">
        <ele>93</ele>
        <time>2013-05-24T12:17:34</time>
      </trkpt>
      <trkpt lat="47.81942" lon="-2.80332">
        <ele>93</ele>
        <time>2013-05-24T12:17:44</time>
      </trkpt>
      <trkpt lat="47.8193" lon="-2.8034">
        <ele>93</ele>
        <time>2013-05-24T12:17:54</time>
      </trkpt>
      <trkpt lat="47.81918" lon="-2.80347">
        <ele>94</ele>
        <time>2013-05-24T12:18:05</time>
      </trkpt>
      <trkpt lat="47.81906" lon="-2.80355">
        <ele>91</ele>
        <time>2013-05-24T12:18:15</time>
      </trkpt>
      <trkpt lat="47.81893" lon="-2.80362">
        <ele>94</ele>
        <time>2013-05-24T12:18:25</time>
      </trkpt>
      <trkpt lat="47.81882" lon="-2.80368">
        <ele>92</ele>
        <time>2013-05-24T12:18:35</time>
      </trkpt>
      <trkpt lat="47.81873" lon="-2.80374">
        <ele>91</ele>
        <time>2013-05-24T12:18:45</time>
      </trkpt>
      <trkpt lat="47.81863" lon="-2.8038">
        <ele>93</ele>
        <time>2013-05-24T12:18:55</time>
      </trkpt>
      <trkpt lat="47.81853" lon="-2.80385">
        <ele>93</ele>
        <time>2013-05-24T12:19:05</time>
      </trkpt>
      <trkpt lat="47.81844" lon="-2.80391">
        <ele>95</ele>
        <time>2013-05-24T12:19:15</time>
      </trkpt>
      <trkpt lat="47.81831" lon="-2.80399">
        <ele>96</ele>
        <time>2013-05-24T12:19:25</time>
      </trkpt>
      <trkpt lat="47.8182" lon="-2.80405">
        <ele>96</ele>
        <time>2013-05-24T12:19:35</time>
      </trkpt>
      <trkpt lat="47.81809" lon="-2.80411">
        <ele>96</ele>
        <time>2013-05-24T12:19:45</time>
      </trkpt>
      <trkpt lat="47.81797" lon="-2.80419">
        <ele>98</ele>
        <time>2013-05-24T12:19:55</time>
      </trkpt>
      <trkpt lat="47.81784" lon="-2.80426">
        <ele>96</ele>
        <time>2013-05-24T12:20:05</time>
      </trkpt>
      <trkpt lat="47.8177" lon="-2.80434">
        <ele>98</ele>
        <time>2013-05-24T12:20:15</time>
      </trkpt>
      <trkpt lat="47.81758" lon="-2.80441">
        <ele>97</ele>
        <time>2013-05-24T12:20:26</time>
      </trkpt>
      <trkpt lat="47.81747" lon="-2.80448">
        <ele>98</ele>
        <time>2013-05-24T12:20:36</time>
      </trkpt>
      <trkpt lat="47.81736" lon="-2.80453">
        <ele>99</ele>
        <time>2013-05-24T12:20:46</time>
      </trkpt>
      <trkpt lat="47.81724" lon="-2.8046">
        <ele>98</ele>
        <time>2013-05-24T12:20:56</time>
      </trkpt>
      <trkpt lat="47.81712" lon="-2.80467">
        <ele>99</ele>
        <time>2013-05-24T12:21:06</time>
      </trkpt>
      <trkpt lat="47.81702" lon="-2.80472">
        <ele>99</ele>
        <time>2013-05-24T12:21:16</time>
      </trkpt>
      <trkpt lat="47.8169" lon="-2.80479">
        <ele>99</ele>
        <time>2013-05-24T12:21:26</time>
      </trkpt>
      <trkpt lat="47.81678" lon="-2.80486">
        <ele>101</ele>
        <time>2013-05-24T12:21:36</time>
      </trkpt>
      <trkpt lat="47.81666" lon="-2.80492">
        <ele>100</ele>
        <time>2013-05-24T12:21:46</time>
      </trkpt>
      <trkpt lat="47.81653" lon="-2.805">
        <ele>96</ele>
        <time>2013-05-24T12:21:56</time>
      </trkpt>
      <trkpt lat="47.81638" lon="-2.80507">
        <ele>100</ele>
        <time>2013-05-24T12:22:06</time>
      </trkpt>
      <trkpt lat="47.81625" lon="-2.80512">
        <ele>99</ele>
        <time>2013-05-24T12:22:16</time>
      </trkpt>
      <trkpt lat="47.8161" lon="-2.80517">
        <ele>99</ele>
        <time>2013-05-24T12:22:26</time>
      </trkpt>
      <trkpt lat="47.81597" lon="-2.80521">
        <ele>99</ele>
        <time>2013-05-24T12:22:36</time>
      </trkpt>
      <trkpt lat="47.81585" lon="-2.80524">
        <ele>102</ele>
        <time>2013-05-24T12:22:47</time>
      </trkpt>
      <trkpt lat="47.81575" lon="-2.80526">
        <ele>100</ele>
        <time>2013-05-24T12:22:57</time>
      </trkpt>
      <trkpt lat="47.81575" lon="-2.80526">
        <ele>100</ele>
        <time>2013-05-24T12:23:07</time>
      </trkpt>
      <trkpt lat="47.81567" lon="-2.80528">
        <ele>101</ele>
        <time>2013-05-24T12:23:17</time>
      </trkpt>
      <trkpt lat="47.81556" lon="-2.8053">
        <ele>102</ele>
        <time>2013-05-24T12:23:27</time>
      </trkpt>
      <trkpt lat="47.81546" lon="-2.80532">
        <ele>99</ele>
        <time>2013-05-24T12:23:37</time>
      </trkpt>
      <trkpt lat="47.81538" lon="-2.80533">
        <ele>101</ele>
        <time>2013-05-24T12:23:47</time>
      </trkpt>
      <trkpt lat="47.81525" lon="-2.80535">
        <ele>102</ele>
        <time>2013-05-24T12:23:57</time>
      </trkpt>
      <trkpt lat="47.81515" lon="-2.80536">
        <ele>103</ele>
        <time>2013-05-24T12:24:07</time>
      </trkpt>
      <trkpt lat="47.81503" lon="-2.80538">
        <ele>100</ele>
        <time>2013-05-24T12:24:17</time>
      </trkpt>
      <trkpt lat="47.8149" lon="-2.8054">
        <ele>105</ele>
        <time>2013-05-24T12:24:27</time>
      </trkpt>
      <trkpt lat="47.81476" lon="-2.80542">
        <ele>101</ele>
        <time>2013-05-24T12:24:37</time>
      </trkpt>
      <trkpt lat="47.81461" lon="-2.80545">
        <ele>106</ele>
        <time>2013-05-24T12:24:47</time>
      </trkpt>
      <trkpt lat="47.81449" lon="-2.80547">
        <ele>106</ele>
        <time>2013-05-24T12:24:57</time>
      </trkpt>
      <trkpt lat="47.81439" lon="-2.80549">
        <ele>105</ele>
        <time>2013-05-24T12:25:07</time>
      </trkpt>
      <trkpt lat="47.81435" lon="-2.8055">
        <ele>104</ele>
        <time>2013-05-24T12:25:17</time>
      </trkpt>
      <trkpt lat="47.81432" lon="-2.80551">
        <ele>105</ele>
        <time>2013-05-24T12:25:28</time>
      </trkpt>
      <trkpt lat="47.8143" lon="-2.80551">
        <ele>105</ele>
        <time>2013-05-24T12:25:38</time>
      </trkpt>
      <trkpt lat="47.81424" lon="-2.80552">
        <ele>106</ele>
        <time>2013-05-24T12:25:48</time>
      </trkpt>
      <trkpt lat="47.81411" lon="-2.80555">
        <ele>107</ele>
        <time>2013-05-24T12:25:58</time>
      </trkpt>
      <trkpt lat="47.81398" lon="-2.80558">
        <ele>106</ele>
        <time>2013-05-24T12:26:08</time>
      </trkpt>
      <trkpt lat="47.81384" lon="-2.8056">
        <ele>107</ele>
        <time>2013-05-24T12:26:18</time>
      </trkpt>
      <trkpt lat="47.81374" lon="-2.80562">
        <ele>106</ele>
        <time>2013-05-24T12:26:28</time>
      </trkpt>
      <trkpt lat="47.81363" lon="-2.80565">
        <ele>107</ele>
        <time>2013-05-24T12:26:38</time>
      </trkpt>
      <trkpt lat="47.81352" lon="-2.80567">
        <ele>108</ele>
        <time>2013-05-24T12:26:48</time>
      </trkpt>
      <trkpt lat="47.81342" lon="-2.80569">
        <ele>108</ele>
        <time>2013-05-24T12:26:58</time>
      </trkpt>
      <trkpt lat="47.8133" lon="-2.80571">
        <ele>108</ele>
        <time>2013-05-24T12:27:08</time>
      </trkpt>
      <trkpt lat="47.81319" lon="-2.80573">
        <ele>107</ele>
        <time>2013-05-24T12:27:19</time>
      </trkpt>
      <trkpt lat="47.81308" lon="-2.80575">
        <ele>110</ele>
        <time>2013-05-24T12:27:28</time>
      </trkpt>
      <trkpt lat="47.81293" lon="-2.80578">
        <ele>108</ele>
        <time>2013-05-24T12:27:38</time>
      </trkpt>
      <trkpt lat="47.81279" lon="-2.80581">
        <ele>107</ele>
        <time>2013-05-24T12:27:49</time>
      </trkpt>
      <trkpt lat="47.81263" lon="-2.80584">
        <ele>104</ele>
        <time>2013-05-24T12:27:59</time>
      </trkpt>
      <trkpt lat="47.81249" lon="-2.80587">
        <ele>107</ele>
        <time>2013-05-24T12:28:09</time>
      </trkpt>
      <trkpt lat="47.81236" lon="-2.8059">
        <ele>106</ele>
        <time>2013-05-24T12:28:19</time>
      </trkpt>
      <trkpt lat="47.81224" lon="-2.80592">
        <ele>107</ele>
        <time>2013-05-24T12:28:29</time>
      </trkpt>
      <trkpt lat="47.81213" lon="-2.80594">
        <ele>107</ele>
        <time>2013-05-24T12:28:39</time>
      </trkpt>
      <trkpt lat="47.81199" lon="-2.8061">
        <ele>108</ele>
        <time>2013-05-24T12:28:49</time>
      </trkpt>
      <trkpt lat="47.81199" lon="-2.80609">
        <ele>108</ele>
        <time>2013-05-24T12:28:59</time>
      </trkpt>
      <trkpt lat="47.81199" lon="-2.80609">
        <ele>109</ele>
        <time>2013-05-24T12:29:09</time>
      </trkpt>
      <trkpt lat="47.81199" lon="-2.80609">
        <ele>109</ele>
        <time>2013-05-24T12:29:19</time>
      </trkpt>
      <trkpt lat="47.81199" lon="-2.80616">
        <ele>110</ele>
        <time>2013-05-24T12:29:29</time>
      </trkpt>
      <trkpt lat="47.812" lon="-2.80633">
        <ele>107</ele>
        <time>2013-05-24T12:29:39</time>
      </trkpt>
      <trkpt lat="47.81201" lon="-2.80653">
        <ele>110</ele>
        <time>2013-05-24T12:29:49</time>
      </trkpt>
      <trkpt lat="47.81202" lon="-2.80672">
        <ele>109</ele>
        <time>2013-05-24T12:29:59</time>
      </trkpt>
      <trkpt lat="47.81202" lon="-2.80696">
        <ele>109</ele>
        <time>2013-05-24T12:30:10</time>
      </trkpt>
      <trkpt lat="47.81203" lon="-2.80716">
        <ele>111</ele>
        <time>2013-05-24T12:30:20</time>
      </trkpt>
      <trkpt lat="47.81204" lon="-2.80735">
        <ele>109</ele>
        <time>2013-05-24T12:30:30</time>
      </trkpt>
      <trkpt lat="47.81204" lon="-2.80751">
        <ele>109</ele>
        <time>2013-05-24T12:30:40</time>
      </trkpt>
      <trkpt lat="47.81204" lon="-2.80767">
        <ele>108</ele>
        <time>2013-05-24T12:30:50</time>
      </trkpt>
      <trkpt lat="47.81203" lon="-2.80786">
        <ele>109</ele>
        <time>2013-05-24T12:31:00</time>
      </trkpt>
      <trkpt lat="47.81202" lon="-2.808">
        <ele>106</ele>
        <time>2013-05-24T12:31:10</time>
      </trkpt>
      <trkpt lat="47.812" lon="-2.80807">
        <ele>108</ele>
        <time>2013-05-24T12:31:20</time>
      </trkpt>
      <trkpt lat="47.812" lon="-2.8081">
        <ele>107</ele>
        <time>2013-05-24T12:31:30</time>
      </trkpt>
      <trkpt lat="47.81199" lon="-2.80813">
        <ele>107</ele>
        <time>2013-05-24T12:31:40</time>
      </trkpt>
      <trkpt lat="47.812" lon="-2.80807">
        <ele>104</ele>
        <time>2013-05-24T12:31:50</time>
      </trkpt>
      <trkpt lat="47.81203" lon="-2.80786">
        <ele>107</ele>
        <time>2013-05-24T12:32:00</time>
      </trkpt>
      <trkpt lat="47.81203" lon="-2.80782">
        <ele>105</ele>
        <time>2013-05-24T12:32:10</time>
      </trkpt>
      <trkpt lat="47.81199" lon="-2.80812">
        <ele>106</ele>
        <time>2013-05-24T12:32:20</time>
      </trkpt>
      <trkpt lat="47.81203" lon="-2.80775">
        <ele>107</ele>
        <time>2013-05-24T12:32:31</time>
      </trkpt>
      <trkpt lat="47.81102" lon="-2.80636">
        <ele>107</ele>
        <time>2013-05-24T12:32:41</time>
      </trkpt>
      <trkpt lat="47.81097" lon="-2.80638">
        <ele>105</ele>
        <time>2013-05-24T12:32:51</time>
      </trkpt>
      <trkpt lat="47.8109" lon="-2.80639">
        <ele>106</ele>
        <time>2013-05-24T12:33:01</time>
      </trkpt>
      <trkpt lat="47.8108" lon="-2.80642">
        <ele>104</ele>
        <time>2013-05-24T12:33:11</time>
      </trkpt>
      <trkpt lat="47.8107" lon="-2.80644">
        <ele>105</ele>
        <time>2013-05-24T12:33:21</time>
      </trkpt>
      <trkpt lat="47.81062" lon="-2.80646">
        <ele>103</ele>
        <time>2013-05-24T12:33:31</time>
      </trkpt>
      <trkpt lat="47.81052" lon="-2.80648">
        <ele>103</ele>
        <time>2013-05-24T12:33:41</time>
      </trkpt>
      <trkpt lat="47.81041" lon="-2.80651">
        <ele>102</ele>
        <time>2013-05-24T12:33:51</time>
      </trkpt>
      <trkpt lat="47.81028" lon="-2.80654">
        <ele>104</ele>
        <time>2013-05-24T12:34:01</time>
      </trkpt>
      <trkpt lat="47.81018" lon="-2.80656">
        <ele>104</ele>
        <time>2013-05-24T12:34:11</time>
      </trkpt>
      <trkpt lat="47.81007" lon="-2.80659">
        <ele>103</ele>
        <time>2013-05-24T12:34:21</time>
      </trkpt>
      <trkpt lat="47.80996" lon="-2.80661">
        <ele>102</ele>
        <time>2013-05-24T12:34:31</time>
      </trkpt>
      <trkpt lat="47.80983" lon="-2.80664">
        <ele>102</ele>
        <time>2013-05-24T12:34:41</time>
      </trkpt>
      <trkpt lat="47.80969" lon="-2.80667">
        <ele>99</ele>
        <time>2013-05-24T12:34:52</time>
      </trkpt>
      <trkpt lat="47.80959" lon="-2.8067">
        <ele>102</ele>
        <time>2013-05-24T12:35:02</time>
      </trkpt>
      <trkpt lat="47.80946" lon="-2.80673">
        <ele>102</ele>
        <time>2013-05-24T12:35:12</time>
      </trkpt>
      <trkpt lat="47.80933" lon="-2.80676">
        <ele>101</ele>
        <time>2013-05-24T12:35:22</time>
      </trkpt>
      <trkpt lat="47.80922" lon="-2.80678">
        <ele>103</ele>
        <time>2013-05-24T12:35:32</time>
      </trkpt>
      <trkpt lat="47.80912" lon="-2.8068">
        <ele>100</ele>
        <time>2013-05-24T12:35:42</time>
      </trkpt>
      <trkpt lat="47.80908" lon="-2.80681">
        <ele>102</ele>
        <time>2013-05-24T12:35:52</time>
      </trkpt>
      <trkpt lat="47.80908" lon="-2.80681">
        <ele>104</ele>
        <time>2013-05-24T12:36:02</time>
      </trkpt>
      <trkpt lat="47.80907" lon="-2.80681">
        <ele>103</ele>
        <time>2013-05-24T12:36:12</time>
      </trkpt>
      <trkpt lat="47.80891" lon="-2.80917">
        <ele>101</ele>
        <time>2013-05-24T12:36:22</time>
      </trkpt>
      <trkpt lat="47.8089" lon="-2.80916">
        <ele>100</ele>
        <time>2013-05-24T12:36:32</time>
      </trkpt>
      <trkpt lat="47.80893" lon="-2.80917">
        <ele>99</ele>
        <time>2013-05-24T12:36:42</time>
      </trkpt>
      <trkpt lat="47.80902" lon="-2.80921">
        <ele>102</ele>
        <time>2013-05-24T12:36:52</time>
      </trkpt>
      <trkpt lat="47.80913" lon="-2.80925">
        <ele>102</ele>
        <time>2013-05-24T12:37:02</time>
      </trkpt>
      <trkpt lat="47.80925" lon="-2.8093">
        <ele>102</ele>
        <time>2013-05-24T12:37:12</time>
      </trkpt>
      <trkpt lat="47.80936" lon="-2.80935">
        <ele>102</ele>
        <time>2013-05-24T12:37:22</time>
      </trkpt>
      <trkpt lat="47.80945" lon="-2.80938">
        <ele>104</ele>
        <time>2013-05-24T12:37:33</time>
      </trkpt>
      <trkpt lat="47.80953" lon="-2.80942">
        <ele>104</ele>
        <time>2013-05-24T12:37:43</time>
      </trkpt>
      <trkpt lat="47.80961" lon="-2.80945">
        <ele>105</ele>
        <time>2013-05-24T12:37:53</time>
      </trkpt>
      <trkpt lat="47.80971" lon="-2.80949">
        <ele>106</ele>
        <time>2013-05-24T12:38:03</time>
      </trkpt>
      <trkpt lat="47.80981" lon="-2.80953">
        <ele>105</ele>
        <time>2013-05-24T12:38:13</time>
      </trkpt>
      <trkpt lat="47.80989" lon="-2.80956">
        <ele>106</ele>
        <time>2013-05-24T12:38:23</time>
      </trkpt>
      <trkpt lat="47.80996" lon="-2.80959">
        <ele>104</ele>
        <time>2013-05-24T12:38:33</time>
      </trkpt>
      <trkpt lat="47.81005" lon="-2.80963">
        <ele>106</ele>
        <time>2013-05-24T12:38:43</time>
      </trkpt>
      <trkpt lat="47.81013" lon="-2.80966">
        <ele>106</ele>
        <time>2013-05-24T12:38:53</time>
      </trkpt>
      <trkpt lat="47.81017" lon="-2.80968">
        <ele>106</ele>
        <time>2013-05-24T12:39:03</time>
      </trkpt>
      <trkpt lat="47.81017" lon="-2.80967">
        <ele>105</ele>
        <time>2013-05-24T12:39:13</time>
      </trkpt>
      <trkpt lat="47.81015" lon="-2.80967">
        <ele>105</ele>
        <time>2013-05-24T12:39:23</time>
      </trkpt>
      <trkpt lat="47.81015" lon="-2.80967">
        <ele>103</ele>
        <time>2013-05-24T12:39:33</time>
      </trkpt>
      <trkpt lat="47.81013" lon="-2.80966">
        <ele>104</ele>
        <time>2013-05-24T12:39:43</time>
      </trkpt>
      <trkpt lat="47.81014" lon="-2.80966">
        <ele>103</ele>
        <time>2013-05-24T12:39:54</time>
      </trkpt>
      <trkpt lat="47.81014" lon="-2.80966">
        <ele>105</ele>
        <time>2013-05-24T12:40:04</time>
      </trkpt>
      <trkpt lat="47.81013" lon="-2.80966">
        <ele>103</ele>
        <time>2013-05-24T12:40:14</time>
      </trkpt>
      <trkpt lat="47.81013" lon="-2.80966">
        <ele>103</ele>
        <time>2013-05-24T12:40:24</time>
      </trkpt>
      <trkpt lat="47.81014" lon="-2.80967">
        <ele>104</ele>
        <time>2013-05-24T12:40:34</time>
      </trkpt>
      <trkpt lat="47.81015" lon="-2.80967">
        <ele>104</ele>
        <time>2013-05-24T12:40:44</time>
      </trkpt>
      <trkpt lat="47.81017" lon="-2.80967">
        <ele>103</ele>
        <time>2013-05-24T12:40:54</time>
      </trkpt>
      <trkpt lat="47.81017" lon="-2.80967">
        <ele>103</ele>
        <time>2013-05-24T12:41:04</time>
      </trkpt>
      <trkpt lat="47.81017" lon="-2.80967">
        <ele>103</ele>
        <time>2013-05-24T12:41:14</time>
      </trkpt>
      <trkpt lat="47.81017" lon="-2.80968">
        <ele>103</ele>
        <time>2013-05-24T12:41:24</time>
      </trkpt>
      <trkpt lat="47.81016" lon="-2.80967">
        <ele>103</ele>
        <time>2013-05-24T12:41:34</time>
      </trkpt>
      <trkpt lat="47.81015" lon="-2.80967">
        <ele>103</ele>
        <time>2013-05-24T12:41:44</time>
      </trkpt>
      <trkpt lat="47.81013" lon="-2.80966">
        <ele>103</ele>
        <time>2013-05-24T12:41:54</time>
      </trkpt>
      <trkpt lat="47.81013" lon="-2.80966">
        <ele>103</ele>
        <time>2013-05-24T12:42:04</time>
      </trkpt>
      <trkpt lat="47.81013" lon="-2.80966">
        <ele>104</ele>
        <time>2013-05-24T12:42:14</time>
      </trkpt>
      <trkpt lat="47.81014" lon="-2.80966">
        <ele>103</ele>
        <time>2013-05-24T12:42:24</time>
      </trkpt>
      <trkpt lat="47.81013" lon="-2.80966">
        <ele>103</ele>
        <time>2013-05-24T12:42:35</time>
      </trkpt>
      <trkpt lat="47.81013" lon="-2.80966">
        <ele>103</ele>
        <time>2013-05-24T12:42:45</time>
      </trkpt>
      <trkpt lat="47.81012" lon="-2.80966">
        <ele>103</ele>
        <time>2013-05-24T12:42:55</time>
      </trkpt>
      <trkpt lat="47.81013" lon="-2.80966">
        <ele>102</ele>
        <time>2013-05-24T12:43:05</time>
      </trkpt>
      <trkpt lat="47.81013" lon="-2.80966">
        <ele>103</ele>
        <time>2013-05-24T12:43:15</time>
      </trkpt>
      <trkpt lat="47.81013" lon="-2.80966">
        <ele>103</ele>
        <time>2013-05-24T12:43:25</time>
      </trkpt>
      <trkpt lat="47.81015" lon="-2.80967">
        <ele>102</ele>
        <time>2013-05-24T12:43:35</time>
      </trkpt>
      <trkpt lat="47.81016" lon="-2.80967">
        <ele>103</ele>
        <time>2013-05-24T12:43:45</time>
      </trkpt>
      <trkpt lat="47.81017" lon="-2.80968">
        <ele>103</ele>
        <time>2013-05-24T12:43:55</time>
      </trkpt>
      <trkpt lat="47.81021" lon="-2.80969">
        <ele>100</ele>
        <time>2013-05-24T12:44:05</time>
      </trkpt>
      <trkpt lat="47.81025" lon="-2.80971">
        <ele>103</ele>
        <time>2013-05-24T12:44:15</time>
      </trkpt>
      <trkpt lat="47.81034" lon="-2.80974">
        <ele>105</ele>
        <time>2013-05-24T12:44:25</time>
      </trkpt>
      <trkpt lat="47.81041" lon="-2.80978">
        <ele>101</ele>
        <time>2013-05-24T12:44:35</time>
      </trkpt>
      <trkpt lat="47.81048" lon="-2.8098">
        <ele>103</ele>
        <time>2013-05-24T12:44:45</time>
      </trkpt>
      <trkpt lat="47.81057" lon="-2.80984">
        <ele>105</ele>
        <time>2013-05-24T12:44:55</time>
      </trkpt>
      <trkpt lat="47.81059" lon="-2.80985">
        <ele>105</ele>
        <time>2013-05-24T12:45:06</time>
      </trkpt>
      <trkpt lat="47.81059" lon="-2.80985">
        <ele>105</ele>
        <time>2013-05-24T12:45:16</time>
      </trkpt>
      <trkpt lat="47.81058" lon="-2.80984">
        <ele>105</ele>
        <time>2013-05-24T12:45:26</time>
      </trkpt>
      <trkpt lat="47.81058" lon="-2.80984">
        <ele>104</ele>
        <time>2013-05-24T12:45:36</time>
      </trkpt>
      <trkpt lat="47.81062" lon="-2.80986">
        <ele>105</ele>
        <time>2013-05-24T12:45:46</time>
      </trkpt>
      <trkpt lat="47.81072" lon="-2.8099">
        <ele>106</ele>
        <time>2013-05-24T12:45:56</time>
      </trkpt>
      <trkpt lat="47.81075" lon="-2.80991">
        <ele>106</ele>
        <time>2013-05-24T12:46:06</time>
      </trkpt>
      <trkpt lat="47.81078" lon="-2.80993">
        <ele>103</ele>
        <time>2013-05-24T12:46:16</time>
      </trkpt>
      <trkpt lat="47.81083" lon="-2.80995">
        <ele>106</ele>
        <time>2013-05-24T12:46:26</time>
      </trkpt>
      <trkpt lat="47.81093" lon="-2.80998">
        <ele>107</ele>
        <time>2013-05-24T12:46:36</time>
      </trkpt>
      <trkpt lat="47.81105" lon="-2.81003">
        <ele>106</ele>
        <time>2013-05-24T12:46:46</time>
      </trkpt>
      <trkpt lat="47.81157" lon="-2.80971">
        <ele>102</ele>
        <time>2013-05-24T12:46:56</time>
      </trkpt>
      <trkpt lat="47.81159" lon="-2.80965">
        <ele>103</ele>
        <time>2013-05-24T12:47:07</time>
      </trkpt>
      <trkpt lat="47.81163" lon="-2.80951">
        <ele>102</ele>
        <time>2013-05-24T12:47:17</time>
      </trkpt>
      <trkpt lat="47.81168" lon="-2.80933">
        <ele>105</ele>
        <time>2013-05-24T12:47:27</time>
      </trkpt>
      <trkpt lat="47.81173" lon="-2.80917">
        <ele>103</ele>
        <time>2013-05-24T12:47:37</time>
      </trkpt>
      <trkpt lat="47.81178" lon="-2.809">
        <ele>105</ele>
        <time>2013-05-24T12:47:47</time>
      </trkpt>
      <trkpt lat="47.81182" lon="-2.80881">
        <ele>106</ele>
        <time>2013-05-24T12:47:57</time>
      </trkpt>
      <trkpt lat="47.81187" lon="-2.80866">
        <ele>105</ele>
        <time>2013-05-24T12:48:07</time>
      </trkpt>
      <trkpt lat="47.81191" lon="-2.80848">
        <ele>106</ele>
        <time>2013-05-24T12:48:17</time>
      </trkpt>
      <trkpt lat="47.81195" lon="-2.8083">
        <ele>106</ele>
        <time>2013-05-24T12:48:27</time>
      </trkpt>
      <trkpt lat="47.81198" lon="-2.80815">
        <ele>105</ele>
        <time>2013-05-24T12:48:37</time>
      </trkpt>
      <trkpt lat="47.81201" lon="-2.80802">
        <ele>107</ele>
        <time>2013-05-24T12:48:47</time>
      </trkpt>
      <trkpt lat="47.81203" lon="-2.80786">
        <ele>104</ele>
        <time>2013-05-24T12:48:58</time>
      </trkpt>
      <trkpt lat="47.81203" lon="-2.80774">
        <ele>106</ele>
        <time>2013-05-24T12:49:08</time>
      </trkpt>
      <trkpt lat="47.81204" lon="-2.80762">
        <ele>105</ele>
        <time>2013-05-24T12:49:18</time>
      </trkpt>
      <trkpt lat="47.81204" lon="-2.80745">
        <ele>105</ele>
        <time>2013-05-24T12:49:28</time>
      </trkpt>
      <trkpt lat="47.81204" lon="-2.80729">
        <ele>104</ele>
        <time>2013-05-24T12:49:38</time>
      </trkpt>
      <trkpt lat="47.81114" lon="-2.80633">
        <ele>105</ele>
        <time>2013-05-24T12:49:48</time>
      </trkpt>
      <trkpt lat="47.81107" lon="-2.80635">
        <ele>106</ele>
        <time>2013-05-24T12:49:58</time>
      </trkpt>
      <trkpt lat="47.81099" lon="-2.80637">
        <ele>105</ele>
        <time>2013-05-24T12:50:08</time>
      </trkpt>
      <trkpt lat="47.81091" lon="-2.80639">
        <ele>106</ele>
        <time>2013-05-24T12:50:18</time>
      </trkpt>
      <trkpt lat="47.81084" lon="-2.80641">
        <ele>101</ele>
        <time>2013-05-24T12:50:28</time>
      </trkpt>
      <trkpt lat="47.81076" lon="-2.80643">
        <ele>103</ele>
        <time>2013-05-24T12:50:38</time>
      </trkpt>
      <trkpt lat="47.81067" lon="-2.80645">
        <ele>102</ele>
        <time>2013-05-24T12:50:48</time>
      </trkpt>
      <trkpt lat="47.81059" lon="-2.80647">
        <ele>101</ele>
        <time>2013-05-24T12:50:58</time>
      </trkpt>
      <trkpt lat="47.81046" lon="-2.8065">
        <ele>102</ele>
        <time>2013-05-24T12:51:08</time>
      </trkpt>
      <trkpt lat="47.81034" lon="-2.80652">
        <ele>104</ele>
        <time>2013-05-24T12:51:18</time>
      </trkpt>
      <trkpt lat="47.81021" lon="-2.80655">
        <ele>100</ele>
        <time>2013-05-24T12:51:29</time>
      </trkpt>
      <trkpt lat="47.81009" lon="-2.80658">
        <ele>103</ele>
        <time>2013-05-24T12:51:39</time>
      </trkpt>
      <trkpt lat="47.80996" lon="-2.80661">
        <ele>99</ele>
        <time>2013-05-24T12:51:49</time>
      </trkpt>
      <trkpt lat="47.80984" lon="-2.80664">
        <ele>102</ele>
        <time>2013-05-24T12:51:59</time>
      </trkpt>
      <trkpt lat="47.80972" lon="-2.80667">
        <ele>101</ele>
        <time>2013-05-24T12:52:09</time>
      </trkpt>
      <trkpt lat="47.80958" lon="-2.8067">
        <ele>99</ele>
        <time>2013-05-24T12:52:19</time>
      </trkpt>
      <trkpt lat="47.80945" lon="-2.80673">
        <ele>101</ele>
        <time>2013-05-24T12:52:29</time>
      </trkpt>
      <trkpt lat="47.8093" lon="-2.80676">
        <ele>100</ele>
        <time>2013-05-24T12:52:39</time>
      </trkpt>
      <trkpt lat="47.80917" lon="-2.80679">
        <ele>100</ele>
        <time>2013-05-24T12:52:49</time>
      </trkpt>
      <trkpt lat="47.80904" lon="-2.80682">
        <ele>98</ele>
        <time>2013-05-24T12:52:59</time>
      </trkpt>
      <trkpt lat="47.80891" lon="-2.80685">
        <ele>94</ele>
        <time>2013-05-24T12:53:09</time>
      </trkpt>
      <trkpt lat="47.80878" lon="-2.80688">
        <ele>98</ele>
        <time>2013-05-24T12:53:19</time>
      </trkpt>
      <trkpt lat="47.80866" lon="-2.80691">
        <ele>97</ele>
        <time>2013-05-24T12:53:29</time>
      </trkpt>
      <trkpt lat="47.80862" lon="-2.80692">
        <ele>98</ele>
        <time>2013-05-24T12:53:39</time>
      </trkpt>
      <trkpt lat="47.80861" lon="-2.80692">
        <ele>98</ele>
        <time>2013-05-24T12:53:49</time>
      </trkpt>
      <trkpt lat="47.80856" lon="-2.80694">
        <ele>98</ele>
        <time>2013-05-24T12:54:00</time>
      </trkpt>
      <trkpt lat="47.80845" lon="-2.80696">
        <ele>97</ele>
        <time>2013-05-24T12:54:10</time>
      </trkpt>
      <trkpt lat="47.80833" lon="-2.80699">
        <ele>99</ele>
        <time>2013-05-24T12:54:20</time>
      </trkpt>
      <trkpt lat="47.80821" lon="-2.80702">
        <ele>99</ele>
        <time>2013-05-24T12:54:30</time>
      </trkpt>
      <trkpt lat="47.80808" lon="-2.80705">
        <ele>96</ele>
        <time>2013-05-24T12:54:40</time>
      </trkpt>
      <trkpt lat="47.80797" lon="-2.80708">
        <ele>100</ele>
        <time>2013-05-24T12:54:50</time>
      </trkpt>
      <trkpt lat="47.80788" lon="-2.8071">
        <ele>98</ele>
        <time>2013-05-24T12:55:00</time>
      </trkpt>
      <trkpt lat="47.80776" lon="-2.80713">
        <ele>97</ele>
        <time>2013-05-24T12:55:10</time>
      </trkpt>
      <trkpt lat="47.80765" lon="-2.80715">
        <ele>98</ele>
        <time>2013-05-24T12:55:20</time>
      </trkpt>
      <trkpt lat="47.80754" lon="-2.80718">
        <ele>97</ele>
        <time>2013-05-24T12:55:30</time>
      </trkpt>
      <trkpt lat="47.80741" lon="-2.80721">
        <ele>100</ele>
        <time>2013-05-24T12:55:40</time>
      </trkpt>
      <trkpt lat="47.80728" lon="-2.80724">
        <ele>97</ele>
        <time>2013-05-24T12:55:50</time>
      </trkpt>
      <trkpt lat="47.80715" lon="-2.80728">
        <ele>96</ele>
        <time>2013-05-24T12:56:00</time>
      </trkpt>
      <trkpt lat="47.80702" lon="-2.80731">
        <ele>98</ele>
        <time>2013-05-24T12:56:10</time>
      </trkpt>
      <trkpt lat="47.8069" lon="-2.80734">
        <ele>100</ele>
        <time>2013-05-24T12:56:20</time>
      </trkpt>
      <trkpt lat="47.80675" lon="-2.80738">
        <ele>97</ele>
        <time>2013-05-24T12:56:31</time>
      </trkpt>
      <trkpt lat="47.80661" lon="-2.80741">
        <ele>98</ele>
        <time>2013-05-24T12:56:41</time>
      </trkpt>
      <trkpt lat="47.80649" lon="-2.80744">
        <ele>99</ele>
        <time>2013-05-24T12:56:51</time>
      </trkpt>
      <trkpt lat="47.80638" lon="-2.80747">
        <ele>98</ele>
        <time>2013-05-24T12:57:01</time>
      </trkpt>
      <trkpt lat="47.80625" lon="-2.80753">
        <ele>100</ele>
        <time>2013-05-24T12:57:11</time>
      </trkpt>
      <trkpt lat="47.80618" lon="-2.80763">
        <ele>97</ele>
        <time>2013-05-24T12:57:21</time>
      </trkpt>
      <trkpt lat="47.80597" lon="-2.80775">
        <ele>98</ele>
        <time>2013-05-24T12:57:31</time>
      </trkpt>
      <trkpt lat="47.80584" lon="-2.80768">
        <ele>99</ele>
        <time>2013-05-24T12:57:41</time>
      </trkpt>
      <trkpt lat="47.80571" lon="-2.80761">
        <ele>98</ele>
        <time>2013-05-24T12:57:51</time>
      </trkpt>
      <trkpt lat="47.80558" lon="-2.80753">
        <ele>100</ele>
        <time>2013-05-24T12:58:01</time>
      </trkpt>
      <trkpt lat="47.80548" lon="-2.80748">
        <ele>100</ele>
        <time>2013-05-24T12:58:11</time>
      </trkpt>
      <trkpt lat="47.80537" lon="-2.80742">
        <ele>98</ele>
        <time>2013-05-24T12:58:21</time>
      </trkpt>
      <trkpt lat="47.80527" lon="-2.80735">
        <ele>98</ele>
        <time>2013-05-24T12:58:32</time>
      </trkpt>
      <trkpt lat="47.80515" lon="-2.80728">
        <ele>98</ele>
        <time>2013-05-24T12:58:42</time>
      </trkpt>
      <trkpt lat="47.80505" lon="-2.80723">
        <ele>97</ele>
        <time>2013-05-24T12:58:52</time>
      </trkpt>
      <trkpt lat="47.80495" lon="-2.80717">
        <ele>98</ele>
        <time>2013-05-24T12:59:02</time>
      </trkpt>
      <trkpt lat="47.80492" lon="-2.80715">
        <ele>97</ele>
        <time>2013-05-24T12:59:12</time>
      </trkpt>
      <trkpt lat="47.80487" lon="-2.80713">
        <ele>98</ele>
        <time>2013-05-24T12:59:22</time>
      </trkpt>
      <trkpt lat="47.80481" lon="-2.80709">
        <ele>95</ele>
        <time>2013-05-24T12:59:32</time>
      </trkpt>
      <trkpt lat="47.80474" lon="-2.80704">
        <ele>96</ele>
        <time>2013-05-24T12:59:42</time>
      </trkpt>
      <trkpt lat="47.80464" lon="-2.80697">
        <ele>94</ele>
        <time>2013-05-24T12:59:52</time>
      </trkpt>
      <trkpt lat="47.80455" lon="-2.80692">
        <ele>96</ele>
        <time>2013-05-24T13:00:02</time>
      </trkpt>
      <trkpt lat="47.80445" lon="-2.80685">
        <ele>94</ele>
        <time>2013-05-24T13:00:12</time>
      </trkpt>
      <trkpt lat="47.80435" lon="-2.80678">
        <ele>94</ele>
        <time>2013-05-24T13:00:22</time>
      </trkpt>
      <trkpt lat="47.80386" lon="-2.80803">
        <ele>94</ele>
        <time>2013-05-24T13:00:32</time>
      </trkpt>
      <trkpt lat="47.80373" lon="-2.80806">
        <ele>94</ele>
        <time>2013-05-24T13:00:42</time>
      </trkpt>
      <trkpt lat="47.80361" lon="-2.8081">
        <ele>92</ele>
        <time>2013-05-24T13:00:52</time>
      </trkpt>
      <trkpt lat="47.80349" lon="-2.80814">
        <ele>93</ele>
        <time>2013-05-24T13:01:03</time>
      </trkpt>
      <trkpt lat="47.80336" lon="-2.80818">
        <ele>91</ele>
        <time>2013-05-24T13:01:13</time>
      </trkpt>
      <trkpt lat="47.80322" lon="-2.80822">
        <ele>91</ele>
        <time>2013-05-24T13:01:23</time>
      </trkpt>
      <trkpt lat="47.80311" lon="-2.80823">
        <ele>92</ele>
        <time>2013-05-24T13:01:33</time>
      </trkpt>
      <trkpt lat="47.80302" lon="-2.80825">
        <ele>93</ele>
        <time>2013-05-24T13:01:43</time>
      </trkpt>
      <trkpt lat="47.80289" lon="-2.80826">
        <ele>90</ele>
        <time>2013-05-24T13:01:53</time>
      </trkpt>
      <trkpt lat="47.80276" lon="-2.80827">
        <ele>92</ele>
        <time>2013-05-24T13:02:03</time>
      </trkpt>
      <trkpt lat="47.80264" lon="-2.80829">
        <ele>91</ele>
        <time>2013-05-24T13:02:13</time>
      </trkpt>
      <trkpt lat="47.80247" lon="-2.8083">
        <ele>89</ele>
        <time>2013-05-24T13:02:23</time>
      </trkpt>
      <trkpt lat="47.80233" lon="-2.80832">
        <ele>92</ele>
        <time>2013-05-24T13:02:33</time>
      </trkpt>
      <trkpt lat="47.8022" lon="-2.80833">
        <ele>92</ele>
        <time>2013-05-24T13:02:43</time>
      </trkpt>
      <trkpt lat="47.80207" lon="-2.80835">
        <ele>91</ele>
        <time>2013-05-24T13:02:53</time>
      </trkpt>
      <trkpt lat="47.80193" lon="-2.80835">
        <ele>91</ele>
        <time>2013-05-24T13:03:03</time>
      </trkpt>
      <trkpt lat="47.80181" lon="-2.80834">
        <ele>89</ele>
        <time>2013-05-24T13:03:13</time>
      </trkpt>
      <trkpt lat="47.80168" lon="-2.80833">
        <ele>90</ele>
        <time>2013-05-24T13:03:23</time>
      </trkpt>
      <trkpt lat="47.80157" lon="-2.80831">
        <ele>90</ele>
        <time>2013-05-24T13:03:33</time>
      </trkpt>
      <trkpt lat="47.80146" lon="-2.80825">
        <ele>90</ele>
        <time>2013-05-24T13:03:44</time>
      </trkpt>
      <trkpt lat="47.80133" lon="-2.80819">
        <ele>92</ele>
        <time>2013-05-24T13:03:54</time>
      </trkpt>
      <trkpt lat="47.8012" lon="-2.80814">
        <ele>92</ele>
        <time>2013-05-24T13:04:04</time>
      </trkpt>
      <trkpt lat="47.80107" lon="-2.80812">
        <ele>90</ele>
        <time>2013-05-24T13:04:14</time>
      </trkpt>
      <trkpt lat="47.80096" lon="-2.80808">
        <ele>89</ele>
        <time>2013-05-24T13:04:24</time>
      </trkpt>
      <trkpt lat="47.80081" lon="-2.80804">
        <ele>90</ele>
        <time>2013-05-24T13:04:34</time>
      </trkpt>
      <trkpt lat="47.80079" lon="-2.80805">
        <ele>90</ele>
        <time>2013-05-24T13:04:44</time>
      </trkpt>
      <trkpt lat="47.80077" lon="-2.80805">
        <ele>91</ele>
        <time>2013-05-24T13:04:54</time>
      </trkpt>
      <trkpt lat="47.80077" lon="-2.80805">
        <ele>91</ele>
        <time>2013-05-24T13:05:04</time>
      </trkpt>
      <trkpt lat="47.80076" lon="-2.80805">
        <ele>90</ele>
        <time>2013-05-24T13:05:14</time>
      </trkpt>
      <trkpt lat="47.8007" lon="-2.80804">
        <ele>90</ele>
        <time>2013-05-24T13:05:24</time>
      </trkpt>
      <trkpt lat="47.80065" lon="-2.80802">
        <ele>89</ele>
        <time>2013-05-24T13:05:34</time>
      </trkpt>
      <trkpt lat="47.80059" lon="-2.80801">
        <ele>90</ele>
        <time>2013-05-24T13:05:44</time>
      </trkpt>
      <trkpt lat="47.80047" lon="-2.80799">
        <ele>91</ele>
        <time>2013-05-24T13:05:54</time>
      </trkpt>
      <trkpt lat="47.80036" lon="-2.80796">
        <ele>91</ele>
        <time>2013-05-24T13:06:04</time>
      </trkpt>
      <trkpt lat="47.80022" lon="-2.80791">
        <ele>90</ele>
        <time>2013-05-24T13:06:15</time>
      </trkpt>
      <trkpt lat="47.80011" lon="-2.80789">
        <ele>88</ele>
        <time>2013-05-24T13:06:25</time>
      </trkpt>
      <trkpt lat="47.79998" lon="-2.80785">
        <ele>89</ele>
        <time>2013-05-24T13:06:35</time>
      </trkpt>
      <trkpt lat="47.79985" lon="-2.80781">
        <ele>91</ele>
        <time>2013-05-24T13:06:45</time>
      </trkpt>
      <trkpt lat="47.79973" lon="-2.80777">
        <ele>88</ele>
        <time>2013-05-24T13:06:55</time>
      </trkpt>
      <trkpt lat="47.79962" lon="-2.80773">
        <ele>86</ele>
        <time>2013-05-24T13:07:05</time>
      </trkpt>
      <trkpt lat="47.7995" lon="-2.80772">
        <ele>86</ele>
        <time>2013-05-24T13:07:15</time>
      </trkpt>
      <trkpt lat="47.79937" lon="-2.80767">
        <ele>88</ele>
        <time>2013-05-24T13:07:25</time>
      </trkpt>
      <trkpt lat="47.79926" lon="-2.80764">
        <ele>84</ele>
        <time>2013-05-24T13:07:35</time>
      </trkpt>
      <trkpt lat="47.79913" lon="-2.8076">
        <ele>84</ele>
        <time>2013-05-24T13:07:45</time>
      </trkpt>
      <trkpt lat="47.79902" lon="-2.80757">
        <ele>87</ele>
        <time>2013-05-24T13:07:55</time>
      </trkpt>
      <trkpt lat="47.79893" lon="-2.80754">
        <ele>88</ele>
        <time>2013-05-24T13:08:05</time>
      </trkpt>
      <trkpt lat="47.79879" lon="-2.80749">
        <ele>85</ele>
        <time>2013-05-24T13:08:15</time>
      </trkpt>
      <trkpt lat="47.79866" lon="-2.80744">
        <ele>87</ele>
        <time>2013-05-24T13:08:25</time>
      </trkpt>
      <trkpt lat="47.79852" lon="-2.80737">
        <ele>85</ele>
        <time>2013-05-24T13:08:35</time>
      </trkpt>
      <trkpt lat="47.79838" lon="-2.80732">
        <ele>84</ele>
        <time>2013-05-24T13:08:45</time>
      </trkpt>
      <trkpt lat="47.79826" lon="-2.80729">
        <ele>86</ele>
        <time>2013-05-24T13:08:56</time>
      </trkpt>
      <trkpt lat="47.79812" lon="-2.80724">
        <ele>86</ele>
        <time>2013-05-24T13:09:06</time>
      </trkpt>
      <trkpt lat="47.79801" lon="-2.80721">
        <ele>85</ele>
        <time>2013-05-24T13:09:16</time>
      </trkpt>
      <trkpt lat="47.79794" lon="-2.80722">
        <ele>84</ele>
        <time>2013-05-24T13:09:26</time>
      </trkpt>
      <trkpt lat="47.79785" lon="-2.80721">
        <ele>85</ele>
        <time>2013-05-24T13:09:36</time>
      </trkpt>
      <trkpt lat="47.79773" lon="-2.8072">
        <ele>82</ele>
        <time>2013-05-24T13:09:46</time>
      </trkpt>
      <trkpt lat="47.79761" lon="-2.80716">
        <ele>86</ele>
        <time>2013-05-24T13:09:56</time>
      </trkpt>
      <trkpt lat="47.79747" lon="-2.80712">
        <ele>86</ele>
        <time>2013-05-24T13:10:06</time>
      </trkpt>
      <trkpt lat="47.79736" lon="-2.80709">
        <ele>84</ele>
        <time>2013-05-24T13:10:16</time>
      </trkpt>
      <trkpt lat="47.79724" lon="-2.80706">
        <ele>85</ele>
        <time>2013-05-24T13:10:26</time>
      </trkpt>
      <trkpt lat="47.79714" lon="-2.80702">
        <ele>85</ele>
        <time>2013-05-24T13:10:36</time>
      </trkpt>
      <trkpt lat="47.79702" lon="-2.80699">
        <ele>82</ele>
        <time>2013-05-24T13:10:46</time>
      </trkpt>
      <trkpt lat="47.79688" lon="-2.80696">
        <ele>84</ele>
        <time>2013-05-24T13:10:57</time>
      </trkpt>
      <trkpt lat="47.79677" lon="-2.80694">
        <ele>86</ele>
        <time>2013-05-24T13:11:07</time>
      </trkpt>
      <trkpt lat="47.79664" lon="-2.80687">
        <ele>81</ele>
        <time>2013-05-24T13:11:17</time>
      </trkpt>
      <trkpt lat="47.79651" lon="-2.80683">
        <ele>86</ele>
        <time>2013-05-24T13:11:27</time>
      </trkpt>
      <trkpt lat="47.79642" lon="-2.80681">
        <ele>85</ele>
        <time>2013-05-24T13:11:37</time>
      </trkpt>
      <trkpt lat="47.79628" lon="-2.80679">
        <ele>85</ele>
        <time>2013-05-24T13:11:47</time>
      </trkpt>
      <trkpt lat="47.79616" lon="-2.80677">
        <ele>82</ele>
        <time>2013-05-24T13:11:57</time>
      </trkpt>
      <trkpt lat="47.79603" lon="-2.80674">
        <ele>83</ele>
        <time>2013-05-24T13:12:07</time>
      </trkpt>
      <trkpt lat="47.79589" lon="-2.80672">
        <ele>85</ele>
        <time>2013-05-24T13:12:17</time>
      </trkpt>
      <trkpt lat="47.79577" lon="-2.8067">
        <ele>80</ele>
        <time>2013-05-24T13:12:27</time>
      </trkpt>
      <trkpt lat="47.79565" lon="-2.80669">
        <ele>82</ele>
        <time>2013-05-24T13:12:37</time>
      </trkpt>
      <trkpt lat="47.79554" lon="-2.80666">
        <ele>80</ele>
        <time>2013-05-24T13:12:47</time>
      </trkpt>
      <trkpt lat="47.79542" lon="-2.80661">
        <ele>80</ele>
        <time>2013-05-24T13:12:57</time>
      </trkpt>
      <trkpt lat="47.79529" lon="-2.80655">
        <ele>78</ele>
        <time>2013-05-24T13:13:08</time>
      </trkpt>
      <trkpt lat="47.79517" lon="-2.80652">
        <ele>81</ele>
        <time>2013-05-24T13:13:18</time>
      </trkpt>
      <trkpt lat="47.79502" lon="-2.80646">
        <ele>81</ele>
        <time>2013-05-24T13:13:28</time>
      </trkpt>
      <trkpt lat="47.79488" lon="-2.80641">
        <ele>78</ele>
        <time>2013-05-24T13:13:38</time>
      </trkpt>
      <trkpt lat="47.79473" lon="-2.80635">
        <ele>78</ele>
        <time>2013-05-24T13:13:48</time>
      </trkpt>
      <trkpt lat="47.7946" lon="-2.80631">
        <ele>79</ele>
        <time>2013-05-24T13:13:58</time>
      </trkpt>
      <trkpt lat="47.79447" lon="-2.80629">
        <ele>78</ele>
        <time>2013-05-24T13:14:08</time>
      </trkpt>
      <trkpt lat="47.79436" lon="-2.80627">
        <ele>79</ele>
        <time>2013-05-24T13:14:18</time>
      </trkpt>
      <trkpt lat="47.79422" lon="-2.80622">
        <ele>79</ele>
        <time>2013-05-24T13:14:28</time>
      </trkpt>
      <trkpt lat="47.79413" lon="-2.8062">
        <ele>78</ele>
        <time>2013-05-24T13:14:38</time>
      </trkpt>
      <trkpt lat="47.79402" lon="-2.80621">
        <ele>79</ele>
        <time>2013-05-24T13:14:48</time>
      </trkpt>
      <trkpt lat="47.7939" lon="-2.80619">
        <ele>76</ele>
        <time>2013-05-24T13:14:58</time>
      </trkpt>
      <trkpt lat="47.79376" lon="-2.80615">
        <ele>75</ele>
        <time>2013-05-24T13:15:08</time>
      </trkpt>
      <trkpt lat="47.79362" lon="-2.80611">
        <ele>78</ele>
        <time>2013-05-24T13:15:18</time>
      </trkpt>
      <trkpt lat="47.79347" lon="-2.80606">
        <ele>77</ele>
        <time>2013-05-24T13:15:29</time>
      </trkpt>
      <trkpt lat="47.79337" lon="-2.80601">
        <ele>76</ele>
        <time>2013-05-24T13:15:39</time>
      </trkpt>
      <trkpt lat="47.7933" lon="-2.80598">
        <ele>74</ele>
        <time>2013-05-24T13:15:49</time>
      </trkpt>
      <trkpt lat="47.79329" lon="-2.80599">
        <ele>75</ele>
        <time>2013-05-24T13:15:59</time>
      </trkpt>
      <trkpt lat="47.79328" lon="-2.80599">
        <ele>75</ele>
        <time>2013-05-24T13:16:09</time>
      </trkpt>
      <trkpt lat="47.79323" lon="-2.80598">
        <ele>75</ele>
        <time>2013-05-24T13:16:19</time>
      </trkpt>
      <trkpt lat="47.79319" lon="-2.80599">
        <ele>75</ele>
        <time>2013-05-24T13:16:29</time>
      </trkpt>
      <trkpt lat="47.79318" lon="-2.80601">
        <ele>75</ele>
        <time>2013-05-24T13:16:39</time>
      </trkpt>
      <trkpt lat="47.79317" lon="-2.80601">
        <ele>74</ele>
        <time>2013-05-24T13:16:49</time>
      </trkpt>
      <trkpt lat="47.79314" lon="-2.80601">
        <ele>74</ele>
        <time>2013-05-24T13:16:59</time>
      </trkpt>
      <trkpt lat="47.79307" lon="-2.80599">
        <ele>76</ele>
        <time>2013-05-24T13:17:09</time>
      </trkpt>
      <trkpt lat="47.79297" lon="-2.80596">
        <ele>74</ele>
        <time>2013-05-24T13:17:19</time>
      </trkpt>
      <trkpt lat="47.79285" lon="-2.80591">
        <ele>76</ele>
        <time>2013-05-24T13:17:29</time>
      </trkpt>
      <trkpt lat="47.79273" lon="-2.80587">
        <ele>72</ele>
        <time>2013-05-24T13:17:39</time>
      </trkpt>
      <trkpt lat="47.79261" lon="-2.80582">
        <ele>74</ele>
        <time>2013-05-24T13:17:49</time>
      </trkpt>
      <trkpt lat="47.79248" lon="-2.80579">
        <ele>70</ele>
        <time>2013-05-24T13:18:00</time>
      </trkpt>
      <trkpt lat="47.79236" lon="-2.80578">
        <ele>72</ele>
        <time>2013-05-24T13:18:10</time>
      </trkpt>
      <trkpt lat="47.79222" lon="-2.80575">
        <ele>74</ele>
        <time>2013-05-24T13:18:20</time>
      </trkpt>
      <trkpt lat="47.79211" lon="-2.80573">
        <ele>71</ele>
        <time>2013-05-24T13:18:30</time>
      </trkpt>
      <trkpt lat="47.792" lon="-2.80569">
        <ele>70</ele>
        <time>2013-05-24T13:18:40</time>
      </trkpt>
      <trkpt lat="47.79187" lon="-2.80564">
        <ele>72</ele>
        <time>2013-05-24T13:18:50</time>
      </trkpt>
      <trkpt lat="47.79175" lon="-2.80559">
        <ele>70</ele>
        <time>2013-05-24T13:19:00</time>
      </trkpt>
      <trkpt lat="47.79163" lon="-2.80553">
        <ele>72</ele>
        <time>2013-05-24T13:19:10</time>
      </trkpt>
      <trkpt lat="47.79151" lon="-2.80549">
        <ele>69</ele>
        <time>2013-05-24T13:19:20</time>
      </trkpt>
      <trkpt lat="47.79137" lon="-2.80546">
        <ele>72</ele>
        <time>2013-05-24T13:19:30</time>
      </trkpt>
      <trkpt lat="47.79125" lon="-2.80541">
        <ele>72</ele>
        <time>2013-05-24T13:19:40</time>
      </trkpt>
      <trkpt lat="47.79113" lon="-2.80536">
        <ele>70</ele>
        <time>2013-05-24T13:19:50</time>
      </trkpt>
      <trkpt lat="47.791" lon="-2.8053">
        <ele>70</ele>
        <time>2013-05-24T13:20:00</time>
      </trkpt>
      <trkpt lat="47.79089" lon="-2.80526">
        <ele>70</ele>
        <time>2013-05-24T13:20:10</time>
      </trkpt>
      <trkpt lat="47.79074" lon="-2.80519">
        <ele>72</ele>
        <time>2013-05-24T13:20:21</time>
      </trkpt>
      <trkpt lat="47.79062" lon="-2.80514">
        <ele>70</ele>
        <time>2013-05-24T13:20:31</time>
      </trkpt>
      <trkpt lat="47.79052" lon="-2.80511">
        <ele>67</ele>
        <time>2013-05-24T13:20:41</time>
      </trkpt>
      <trkpt lat="47.79041" lon="-2.80506">
        <ele>69</ele>
        <time>2013-05-24T13:20:51</time>
      </trkpt>
      <trkpt lat="47.79036" lon="-2.805">
        <ele>67</ele>
        <time>2013-05-24T13:21:01</time>
      </trkpt>
      <trkpt lat="47.79039" lon="-2.80494">
        <ele>67</ele>
        <time>2013-05-24T13:21:11</time>
      </trkpt>
      <trkpt lat="47.79047" lon="-2.80487">
        <ele>65</ele>
        <time>2013-05-24T13:21:21</time>
      </trkpt>
      <trkpt lat="47.79054" lon="-2.80484">
        <ele>67</ele>
        <time>2013-05-24T13:21:31</time>
      </trkpt>
      <trkpt lat="47.79059" lon="-2.8048">
        <ele>66</ele>
        <time>2013-05-24T13:21:41</time>
      </trkpt>
      <trkpt lat="47.79064" lon="-2.80477">
        <ele>67</ele>
        <time>2013-05-24T13:21:51</time>
      </trkpt>
      <trkpt lat="47.7907" lon="-2.80473">
        <ele>67</ele>
        <time>2013-05-24T13:22:01</time>
      </trkpt>
      <trkpt lat="47.79077" lon="-2.80465">
        <ele>65</ele>
        <time>2013-05-24T13:22:11</time>
      </trkpt>
      <trkpt lat="47.79084" lon="-2.80457">
        <ele>66</ele>
        <time>2013-05-24T13:22:21</time>
      </trkpt>
      <trkpt lat="47.79092" lon="-2.8045">
        <ele>68</ele>
        <time>2013-05-24T13:22:31</time>
      </trkpt>
      <trkpt lat="47.79103" lon="-2.80441">
        <ele>68</ele>
        <time>2013-05-24T13:22:42</time>
      </trkpt>
      <trkpt lat="47.79111" lon="-2.80435">
        <ele>67</ele>
        <time>2013-05-24T13:22:52</time>
      </trkpt>
      <trkpt lat="47.79121" lon="-2.80433">
        <ele>70</ele>
        <time>2013-05-24T13:23:02</time>
      </trkpt>
      <trkpt lat="47.7913" lon="-2.8043">
        <ele>71</ele>
        <time>2013-05-24T13:23:12</time>
      </trkpt>
      <trkpt lat="47.79139" lon="-2.80423">
        <ele>72</ele>
        <time>2013-05-24T13:23:22</time>
      </trkpt>
      <trkpt lat="47.79147" lon="-2.80416">
        <ele>69</ele>
        <time>2013-05-24T13:23:32</time>
      </trkpt>
      <trkpt lat="47.79156" lon="-2.80407">
        <ele>70</ele>
        <time>2013-05-24T13:23:42</time>
      </trkpt>
      <trkpt lat="47.79162" lon="-2.80398">
        <ele>73</ele>
        <time>2013-05-24T13:23:52</time>
      </trkpt>
      <trkpt lat="47.7917" lon="-2.80389">
        <ele>74</ele>
        <time>2013-05-24T13:24:02</time>
      </trkpt>
      <trkpt lat="47.79182" lon="-2.80377">
        <ele>73</ele>
        <time>2013-05-24T13:24:12</time>
      </trkpt>
      <trkpt lat="47.79192" lon="-2.80368">
        <ele>74</ele>
        <time>2013-05-24T13:24:22</time>
      </trkpt>
      <trkpt lat="47.79196" lon="-2.80359">
        <ele>73</ele>
        <time>2013-05-24T13:24:32</time>
      </trkpt>
      <trkpt lat="47.792" lon="-2.80345">
        <ele>76</ele>
        <time>2013-05-24T13:24:42</time>
      </trkpt>
      <trkpt lat="47.79198" lon="-2.8033">
        <ele>76</ele>
        <time>2013-05-24T13:24:52</time>
      </trkpt>
      <trkpt lat="47.79194" lon="-2.80314">
        <ele>76</ele>
        <time>2013-05-24T13:25:02</time>
      </trkpt>
      <trkpt lat="47.79186" lon="-2.80298">
        <ele>77</ele>
        <time>2013-05-24T13:25:12</time>
      </trkpt>
      <trkpt lat="47.79179" lon="-2.80281">
        <ele>74</ele>
        <time>2013-05-24T13:25:23</time>
      </trkpt>
      <trkpt lat="47.79175" lon="-2.80267">
        <ele>76</ele>
        <time>2013-05-24T13:25:33</time>
      </trkpt>
      <trkpt lat="47.79174" lon="-2.80263">
        <ele>77</ele>
        <time>2013-05-24T13:25:43</time>
      </trkpt>
      <trkpt lat="47.79171" lon="-2.80253">
        <ele>76</ele>
        <time>2013-05-24T13:25:53</time>
      </trkpt>
      <trkpt lat="47.79172" lon="-2.80241">
        <ele>76</ele>
        <time>2013-05-24T13:26:03</time>
      </trkpt>
      <trkpt lat="47.79174" lon="-2.8023">
        <ele>79</ele>
        <time>2013-05-24T13:26:13</time>
      </trkpt>
      <trkpt lat="47.79175" lon="-2.80217">
        <ele>77</ele>
        <time>2013-05-24T13:26:23</time>
      </trkpt>
      <trkpt lat="47.79177" lon="-2.80203">
        <ele>80</ele>
        <time>2013-05-24T13:26:33</time>
      </trkpt>
      <trkpt lat="47.79181" lon="-2.80187">
        <ele>81</ele>
        <time>2013-05-24T13:26:43</time>
      </trkpt>
      <trkpt lat="47.79185" lon="-2.80168">
        <ele>79</ele>
        <time>2013-05-24T13:26:53</time>
      </trkpt>
      <trkpt lat="47.79186" lon="-2.80151">
        <ele>82</ele>
        <time>2013-05-24T13:27:03</time>
      </trkpt>
      <trkpt lat="47.79185" lon="-2.80132">
        <ele>81</ele>
        <time>2013-05-24T13:27:13</time>
      </trkpt>
      <trkpt lat="47.79184" lon="-2.80114">
        <ele>82</ele>
        <time>2013-05-24T13:27:23</time>
      </trkpt>
      <trkpt lat="47.79183" lon="-2.80104">
        <ele>80</ele>
        <time>2013-05-24T13:27:33</time>
      </trkpt>
      <trkpt lat="47.79178" lon="-2.8009">
        <ele>81</ele>
        <time>2013-05-24T13:27:44</time>
      </trkpt>
      <trkpt lat="47.79172" lon="-2.80077">
        <ele>81</ele>
        <time>2013-05-24T13:27:54</time>
      </trkpt>
      <trkpt lat="47.79172" lon="-2.80068">
        <ele>81</ele>
        <time>2013-05-24T13:28:04</time>
      </trkpt>
      <trkpt lat="47.79174" lon="-2.8006">
        <ele>83</ele>
        <time>2013-05-24T13:28:14</time>
      </trkpt>
      <trkpt lat="47.79174" lon="-2.80046">
        <ele>81</ele>
        <time>2013-05-24T13:28:24</time>
      </trkpt>
      <trkpt lat="47.79178" lon="-2.80034">
        <ele>80</ele>
        <time>2013-05-24T13:28:34</time>
      </trkpt>
      <trkpt lat="47.79185" lon="-2.80025">
        <ele>85</ele>
        <time>2013-05-24T13:28:44</time>
      </trkpt>
      <trkpt lat="47.7919" lon="-2.80018">
        <ele>85</ele>
        <time>2013-05-24T13:28:54</time>
      </trkpt>
      <trkpt lat="47.79196" lon="-2.80014">
        <ele>88</ele>
        <time>2013-05-24T13:29:04</time>
      </trkpt>
      <trkpt lat="47.79201" lon="-2.80003">
        <ele>90</ele>
        <time>2013-05-24T13:29:14</time>
      </trkpt>
      <trkpt lat="47.79207" lon="-2.79995">
        <ele>91</ele>
        <time>2013-05-24T13:29:24</time>
      </trkpt>
      <trkpt lat="47.79216" lon="-2.79986">
        <ele>93</ele>
        <time>2013-05-24T13:29:34</time>
      </trkpt>
      <trkpt lat="47.79221" lon="-2.79977">
        <ele>95</ele>
        <time>2013-05-24T13:29:44</time>
      </trkpt>
      <trkpt lat="47.79227" lon="-2.79964">
        <ele>96</ele>
        <time>2013-05-24T13:29:55</time>
      </trkpt>
      <trkpt lat="47.79232" lon="-2.79955">
        <ele>96</ele>
        <time>2013-05-24T13:30:04</time>
      </trkpt>
      <trkpt lat="47.79232" lon="-2.7994">
        <ele>98</ele>
        <time>2013-05-24T13:30:15</time>
      </trkpt>
      <trkpt lat="47.79228" lon="-2.79922">
        <ele>97</ele>
        <time>2013-05-24T13:30:25</time>
      </trkpt>
      <trkpt lat="47.79223" lon="-2.79904">
        <ele>95</ele>
        <time>2013-05-24T13:30:35</time>
      </trkpt>
      <trkpt lat="47.7922" lon="-2.79888">
        <ele>93</ele>
        <time>2013-05-24T13:30:45</time>
      </trkpt>
      <trkpt lat="47.79219" lon="-2.79868">
        <ele>95</ele>
        <time>2013-05-24T13:30:55</time>
      </trkpt>
      <trkpt lat="47.79221" lon="-2.79855">
        <ele>94</ele>
        <time>2013-05-24T13:31:05</time>
      </trkpt>
      <trkpt lat="47.79223" lon="-2.79841">
        <ele>93</ele>
        <time>2013-05-24T13:31:15</time>
      </trkpt>
      <trkpt lat="47.79228" lon="-2.79827">
        <ele>94</ele>
        <time>2013-05-24T13:31:25</time>
      </trkpt>
      <trkpt lat="47.79235" lon="-2.79816">
        <ele>94</ele>
        <time>2013-05-24T13:31:35</time>
      </trkpt>
      <trkpt lat="47.79243" lon="-2.79804">
        <ele>92</ele>
        <time>2013-05-24T13:31:45</time>
      </trkpt>
      <trkpt lat="47.79252" lon="-2.79796">
        <ele>95</ele>
        <time>2013-05-24T13:31:55</time>
      </trkpt>
      <trkpt lat="47.79262" lon="-2.7979">
        <ele>95</ele>
        <time>2013-05-24T13:32:05</time>
      </trkpt>
      <trkpt lat="47.79272" lon="-2.7979">
        <ele>93</ele>
        <time>2013-05-24T13:32:15</time>
      </trkpt>
      <trkpt lat="47.79284" lon="-2.79789">
        <ele>96</ele>
        <time>2013-05-24T13:32:26</time>
      </trkpt>
      <trkpt lat="47.79296" lon="-2.79788">
        <ele>97</ele>
        <time>2013-05-24T13:32:36</time>
      </trkpt>
      <trkpt lat="47.79307" lon="-2.7978">
        <ele>94</ele>
        <time>2013-05-24T13:32:46</time>
      </trkpt>
      <trkpt lat="47.79312" lon="-2.79767">
        <ele>95</ele>
        <time>2013-05-24T13:32:56</time>
      </trkpt>
      <trkpt lat="47.79309" lon="-2.79755">
        <ele>95</ele>
        <time>2013-05-24T13:33:06</time>
      </trkpt>
      <trkpt lat="47.79308" lon="-2.79738">
        <ele>98</ele>
        <time>2013-05-24T13:33:16</time>
      </trkpt>
      <trkpt lat="47.79307" lon="-2.79721">
        <ele>100</ele>
        <time>2013-05-24T13:33:26</time>
      </trkpt>
      <trkpt lat="47.79305" lon="-2.79704">
        <ele>102</ele>
        <time>2013-05-24T13:33:36</time>
      </trkpt>
      <trkpt lat="47.79303" lon="-2.79694">
        <ele>104</ele>
        <time>2013-05-24T13:33:46</time>
      </trkpt>
      <trkpt lat="47.79304" lon="-2.79681">
        <ele>102</ele>
        <time>2013-05-24T13:33:56</time>
      </trkpt>
      <trkpt lat="47.79299" lon="-2.79675">
        <ele>101</ele>
        <time>2013-05-24T13:34:06</time>
      </trkpt>
      <trkpt lat="47.79289" lon="-2.79666">
        <ele>105</ele>
        <time>2013-05-24T13:34:17</time>
      </trkpt>
      <trkpt lat="47.79279" lon="-2.79661">
        <ele>99</ele>
        <time>2013-05-24T13:34:27</time>
      </trkpt>
      <trkpt lat="47.79268" lon="-2.79651">
        <ele>103</ele>
        <time>2013-05-24T13:34:37</time>
      </trkpt>
      <trkpt lat="47.79255" lon="-2.79646">
        <ele>101</ele>
        <time>2013-05-24T13:34:47</time>
      </trkpt>
      <trkpt lat="47.79242" lon="-2.79641">
        <ele>101</ele>
        <time>2013-05-24T13:34:57</time>
      </trkpt>
      <trkpt lat="47.79231" lon="-2.79634">
        <ele>101</ele>
        <time>2013-05-24T13:35:07</time>
      </trkpt>
      <trkpt lat="47.79219" lon="-2.79629">
        <ele>98</ele>
        <time>2013-05-24T13:35:17</time>
      </trkpt>
      <trkpt lat="47.7921" lon="-2.79627">
        <ele>97</ele>
        <time>2013-05-24T13:35:27</time>
      </trkpt>
      <trkpt lat="47.79202" lon="-2.79623">
        <ele>97</ele>
        <time>2013-05-24T13:35:37</time>
      </trkpt>
      <trkpt lat="47.79194" lon="-2.7962">
        <ele>98</ele>
        <time>2013-05-24T13:35:47</time>
      </trkpt>
      <trkpt lat="47.79187" lon="-2.79613">
        <ele>94</ele>
        <time>2013-05-24T13:35:57</time>
      </trkpt>
      <trkpt lat="47.79177" lon="-2.79606">
        <ele>92</ele>
        <time>2013-05-24T13:36:07</time>
      </trkpt>
      <trkpt lat="47.79167" lon="-2.79601">
        <ele>93</ele>
        <time>2013-05-24T13:36:17</time>
      </trkpt>
      <trkpt lat="47.79155" lon="-2.79595">
        <ele>93</ele>
        <time>2013-05-24T13:36:27</time>
      </trkpt>
      <trkpt lat="47.79141" lon="-2.79591">
        <ele>95</ele>
        <time>2013-05-24T13:36:37</time>
      </trkpt>
      <trkpt lat="47.79127" lon="-2.79589">
        <ele>94</ele>
        <time>2013-05-24T13:36:47</time>
      </trkpt>
      <trkpt lat="47.79115" lon="-2.79592">
        <ele>95</ele>
        <time>2013-05-24T13:36:58</time>
      </trkpt>
      <trkpt lat="47.79104" lon="-2.796">
        <ele>94</ele>
        <time>2013-05-24T13:37:08</time>
      </trkpt>
      <trkpt lat="47.79094" lon="-2.79606">
        <ele>94</ele>
        <time>2013-05-24T13:37:18</time>
      </trkpt>
      <trkpt lat="47.79083" lon="-2.79617">
        <ele>93</ele>
        <time>2013-05-24T13:37:28</time>
      </trkpt>
      <trkpt lat="47.79073" lon="-2.79626">
        <ele>94</ele>
        <time>2013-05-24T13:37:38</time>
      </trkpt>
      <trkpt lat="47.79063" lon="-2.79637">
        <ele>92</ele>
        <time>2013-05-24T13:37:48</time>
      </trkpt>
      <trkpt lat="47.79051" lon="-2.79646">
        <ele>90</ele>
        <time>2013-05-24T13:37:58</time>
      </trkpt>
      <trkpt lat="47.7904" lon="-2.79648">
        <ele>90</ele>
        <time>2013-05-24T13:38:08</time>
      </trkpt>
      <trkpt lat="47.79037" lon="-2.79636">
        <ele>89</ele>
        <time>2013-05-24T13:38:18</time>
      </trkpt>
      <trkpt lat="47.79037" lon="-2.79622">
        <ele>91</ele>
        <time>2013-05-24T13:38:28</time>
      </trkpt>
      <trkpt lat="47.79035" lon="-2.79608">
        <ele>91</ele>
        <time>2013-05-24T13:38:38</time>
      </trkpt>
      <trkpt lat="47.79031" lon="-2.79592">
        <ele>92</ele>
        <time>2013-05-24T13:38:48</time>
      </trkpt>
      <trkpt lat="47.79027" lon="-2.79574">
        <ele>91</ele>
        <time>2013-05-24T13:38:58</time>
      </trkpt>
      <trkpt lat="47.79024" lon="-2.79556">
        <ele>89</ele>
        <time>2013-05-24T13:39:08</time>
      </trkpt>
      <trkpt lat="47.7902" lon="-2.7954">
        <ele>92</ele>
        <time>2013-05-24T13:39:18</time>
      </trkpt>
      <trkpt lat="47.79018" lon="-2.79521">
        <ele>92</ele>
        <time>2013-05-24T13:39:29</time>
      </trkpt>
      <trkpt lat="47.79015" lon="-2.79506">
        <ele>92</ele>
        <time>2013-05-24T13:39:39</time>
      </trkpt>
      <trkpt lat="47.79012" lon="-2.79491">
        <ele>91</ele>
        <time>2013-05-24T13:39:49</time>
      </trkpt>
      <trkpt lat="47.79011" lon="-2.79476">
        <ele>92</ele>
        <time>2013-05-24T13:39:59</time>
      </trkpt>
      <trkpt lat="47.79011" lon="-2.79459">
        <ele>90</ele>
        <time>2013-05-24T13:40:09</time>
      </trkpt>
      <trkpt lat="47.7901" lon="-2.79442">
        <ele>90</ele>
        <time>2013-05-24T13:40:19</time>
      </trkpt>
      <trkpt lat="47.79009" lon="-2.79423">
        <ele>92</ele>
        <time>2013-05-24T13:40:29</time>
      </trkpt>
      <trkpt lat="47.79006" lon="-2.79404">
        <ele>90</ele>
        <time>2013-05-24T13:40:39</time>
      </trkpt>
      <trkpt lat="47.79004" lon="-2.79388">
        <ele>90</ele>
        <time>2013-05-24T13:40:49</time>
      </trkpt>
      <trkpt lat="47.79003" lon="-2.79367">
        <ele>90</ele>
        <time>2013-05-24T13:40:59</time>
      </trkpt>
      <trkpt lat="47.79004" lon="-2.79347">
        <ele>91</ele>
        <time>2013-05-24T13:41:09</time>
      </trkpt>
      <trkpt lat="47.79004" lon="-2.79329">
        <ele>92</ele>
        <time>2013-05-24T13:41:19</time>
      </trkpt>
      <trkpt lat="47.79002" lon="-2.79311">
        <ele>93</ele>
        <time>2013-05-24T13:41:30</time>
      </trkpt>
      <trkpt lat="47.79" lon="-2.79293">
        <ele>92</ele>
        <time>2013-05-24T13:41:40</time>
      </trkpt>
      <trkpt lat="47.78997" lon="-2.79276">
        <ele>92</ele>
        <time>2013-05-24T13:41:50</time>
      </trkpt>
      <trkpt lat="47.78996" lon="-2.7926">
        <ele>92</ele>
        <time>2013-05-24T13:42:00</time>
      </trkpt>
      <trkpt lat="47.78997" lon="-2.79243">
        <ele>90</ele>
        <time>2013-05-24T13:42:10</time>
      </trkpt>
      <trkpt lat="47.78998" lon="-2.79239">
        <ele>92</ele>
        <time>2013-05-24T13:42:20</time>
      </trkpt>
      <trkpt lat="47.78998" lon="-2.79237">
        <ele>92</ele>
        <time>2013-05-24T13:42:30</time>
      </trkpt>
      <trkpt lat="47.78997" lon="-2.79235">
        <ele>91</ele>
        <time>2013-05-24T13:42:40</time>
      </trkpt>
      <trkpt lat="47.78996" lon="-2.79233">
        <ele>91</ele>
        <time>2013-05-24T13:42:50</time>
      </trkpt>
      <trkpt lat="47.78994" lon="-2.79232">
        <ele>91</ele>
        <time>2013-05-24T13:43:00</time>
      </trkpt>
      <trkpt lat="47.78994" lon="-2.7923">
        <ele>91</ele>
        <time>2013-05-24T13:43:10</time>
      </trkpt>
      <trkpt lat="47.78994" lon="-2.79229">
        <ele>92</ele>
        <time>2013-05-24T13:43:20</time>
      </trkpt>
      <trkpt lat="47.78994" lon="-2.7923">
        <ele>92</ele>
        <time>2013-05-24T13:43:30</time>
      </trkpt>
      <trkpt lat="47.78994" lon="-2.79231">
        <ele>92</ele>
        <time>2013-05-24T13:43:40</time>
      </trkpt>
      <trkpt lat="47.78994" lon="-2.79232">
        <ele>92</ele>
        <time>2013-05-24T13:43:50</time>
      </trkpt>
      <trkpt lat="47.78993" lon="-2.79233">
        <ele>92</ele>
        <time>2013-05-24T13:44:00</time>
      </trkpt>
      <trkpt lat="47.78993" lon="-2.79233">
        <ele>92</ele>
        <time>2013-05-24T13:44:10</time>
      </trkpt>
      <trkpt lat="47.78994" lon="-2.79233">
        <ele>92</ele>
        <time>2013-05-24T13:44:21</time>
      </trkpt>
      <trkpt lat="47.78993" lon="-2.79232">
        <ele>92</ele>
        <time>2013-05-24T13:44:31</time>
      </trkpt>
      <trkpt lat="47.78993" lon="-2.79231">
        <ele>92</ele>
        <time>2013-05-24T13:44:41</time>
      </trkpt>
      <trkpt lat="47.78993" lon="-2.79229">
        <ele>91</ele>
        <time>2013-05-24T13:44:51</time>
      </trkpt>
      <trkpt lat="47.78994" lon="-2.79229">
        <ele>91</ele>
        <time>2013-05-24T13:45:01</time>
      </trkpt>
      <trkpt lat="47.78995" lon="-2.79229">
        <ele>92</ele>
        <time>2013-05-24T13:45:11</time>
      </trkpt>
      <trkpt lat="47.78997" lon="-2.79232">
        <ele>90</ele>
        <time>2013-05-24T13:45:21</time>
      </trkpt>
      <trkpt lat="47.78998" lon="-2.79232">
        <ele>92</ele>
        <time>2013-05-24T13:45:31</time>
      </trkpt>
      <trkpt lat="47.78998" lon="-2.79233">
        <ele>91</ele>
        <time>2013-05-24T13:45:41</time>
      </trkpt>
      <trkpt lat="47.78997" lon="-2.7923">
        <ele>93</ele>
        <time>2013-05-24T13:45:51</time>
      </trkpt>
      <trkpt lat="47.78997" lon="-2.79229">
        <ele>90</ele>
        <time>2013-05-24T13:46:01</time>
      </trkpt>
      <trkpt lat="47.78997" lon="-2.79229">
        <ele>92</ele>
        <time>2013-05-24T13:46:11</time>
      </trkpt>
      <trkpt lat="47.79" lon="-2.79232">
        <ele>91</ele>
        <time>2013-05-24T13:46:21</time>
      </trkpt>
      <trkpt lat="47.79002" lon="-2.79233">
        <ele>92</ele>
        <time>2013-05-24T13:46:31</time>
      </trkpt>
      <trkpt lat="47.79003" lon="-2.79234">
        <ele>91</ele>
        <time>2013-05-24T13:46:41</time>
      </trkpt>
      <trkpt lat="47.79002" lon="-2.79227">
        <ele>93</ele>
        <time>2013-05-24T13:46:51</time>
      </trkpt>
      <trkpt lat="47.79002" lon="-2.79211">
        <ele>91</ele>
        <time>2013-05-24T13:47:02</time>
      </trkpt>
      <trkpt lat="47.79003" lon="-2.79194">
        <ele>92</ele>
        <time>2013-05-24T13:47:12</time>
      </trkpt>
      <trkpt lat="47.79005" lon="-2.79177">
        <ele>94</ele>
        <time>2013-05-24T13:47:22</time>
      </trkpt>
      <trkpt lat="47.79007" lon="-2.79173">
        <ele>93</ele>
        <time>2013-05-24T13:47:32</time>
      </trkpt>
      <trkpt lat="47.79008" lon="-2.7917">
        <ele>92</ele>
        <time>2013-05-24T13:47:42</time>
      </trkpt>
      <trkpt lat="47.79007" lon="-2.79163">
        <ele>92</ele>
        <time>2013-05-24T13:47:52</time>
      </trkpt>
      <trkpt lat="47.79008" lon="-2.79162">
        <ele>93</ele>
        <time>2013-05-24T13:48:02</time>
      </trkpt>
      <trkpt lat="47.7901" lon="-2.7916">
        <ele>93</ele>
        <time>2013-05-24T13:48:12</time>
      </trkpt>
      <trkpt lat="47.79019" lon="-2.79157">
        <ele>92</ele>
        <time>2013-05-24T13:48:22</time>
      </trkpt>
      <trkpt lat="47.7903" lon="-2.79153">
        <ele>92</ele>
        <time>2013-05-24T13:48:32</time>
      </trkpt>
      <trkpt lat="47.7904" lon="-2.79145">
        <ele>92</ele>
        <time>2013-05-24T13:48:42</time>
      </trkpt>
      <trkpt lat="47.79049" lon="-2.79133">
        <ele>94</ele>
        <time>2013-05-24T13:48:52</time>
      </trkpt>
      <trkpt lat="47.79058" lon="-2.79122">
        <ele>93</ele>
        <time>2013-05-24T13:49:02</time>
      </trkpt>
      <trkpt lat="47.7907" lon="-2.79115">
        <ele>95</ele>
        <time>2013-05-24T13:49:13</time>
      </trkpt>
      <trkpt lat="47.79081" lon="-2.79115">
        <ele>93</ele>
        <time>2013-05-24T13:49:23</time>
      </trkpt>
      <trkpt lat="47.79094" lon="-2.79112">
        <ele>94</ele>
        <time>2013-05-24T13:49:33</time>
      </trkpt>
      <trkpt lat="47.79107" lon="-2.7911">
        <ele>95</ele>
        <time>2013-05-24T13:49:43</time>
      </trkpt>
      <trkpt lat="47.79118" lon="-2.79109">
        <ele>95</ele>
        <time>2013-05-24T13:49:53</time>
      </trkpt>
      <trkpt lat="47.79128" lon="-2.79108">
        <ele>94</ele>
        <time>2013-05-24T13:50:03</time>
      </trkpt>
      <trkpt lat="47.79139" lon="-2.79104">
        <ele>94</ele>
        <time>2013-05-24T13:50:13</time>
      </trkpt>
      <trkpt lat="47.79152" lon="-2.791">
        <ele>96</ele>
        <time>2013-05-24T13:50:23</time>
      </trkpt>
      <trkpt lat="47.79162" lon="-2.79088">
        <ele>96</ele>
        <time>2013-05-24T13:50:33</time>
      </trkpt>
      <trkpt lat="47.7917" lon="-2.79077">
        <ele>94</ele>
        <time>2013-05-24T13:50:43</time>
      </trkpt>
      <trkpt lat="47.7918" lon="-2.79067">
        <ele>95</ele>
        <time>2013-05-24T13:50:53</time>
      </trkpt>
      <trkpt lat="47.79191" lon="-2.79056">
        <ele>96</ele>
        <time>2013-05-24T13:51:03</time>
      </trkpt>
      <trkpt lat="47.792" lon="-2.79047">
        <ele>97</ele>
        <time>2013-05-24T13:51:13</time>
      </trkpt>
      <trkpt lat="47.7921" lon="-2.79039">
        <ele>97</ele>
        <time>2013-05-24T13:51:23</time>
      </trkpt>
      <trkpt lat="47.79222" lon="-2.79034">
        <ele>94</ele>
        <time>2013-05-24T13:51:33</time>
      </trkpt>
      <trkpt lat="47.79233" lon="-2.7903">
        <ele>96</ele>
        <time>2013-05-24T13:51:43</time>
      </trkpt>
      <trkpt lat="47.79245" lon="-2.79026">
        <ele>95</ele>
        <time>2013-05-24T13:51:54</time>
      </trkpt>
      <trkpt lat="47.79257" lon="-2.79027">
        <ele>97</ele>
        <time>2013-05-24T13:52:04</time>
      </trkpt>
      <trkpt lat="47.79266" lon="-2.79033">
        <ele>96</ele>
        <time>2013-05-24T13:52:14</time>
      </trkpt>
      <trkpt lat="47.79274" lon="-2.79039">
        <ele>95</ele>
        <time>2013-05-24T13:52:24</time>
      </trkpt>
      <trkpt lat="47.79282" lon="-2.79044">
        <ele>95</ele>
        <time>2013-05-24T13:52:34</time>
      </trkpt>
      <trkpt lat="47.79287" lon="-2.79044">
        <ele>95</ele>
        <time>2013-05-24T13:52:44</time>
      </trkpt>
      <trkpt lat="47.79295" lon="-2.79042">
        <ele>95</ele>
        <time>2013-05-24T13:52:54</time>
      </trkpt>
      <trkpt lat="47.79301" lon="-2.79044">
        <ele>96</ele>
        <time>2013-05-24T13:53:04</time>
      </trkpt>
      <trkpt lat="47.79309" lon="-2.79044">
        <ele>94</ele>
        <time>2013-05-24T13:53:14</time>
      </trkpt>
      <trkpt lat="47.79316" lon="-2.79046">
        <ele>96</ele>
        <time>2013-05-24T13:53:24</time>
      </trkpt>
      <trkpt lat="47.79328" lon="-2.79048">
        <ele>96</ele>
        <time>2013-05-24T13:53:34</time>
      </trkpt>
      <trkpt lat="47.79338" lon="-2.7905">
        <ele>96</ele>
        <time>2013-05-24T13:53:44</time>
      </trkpt>
      <trkpt lat="47.79349" lon="-2.79051">
        <ele>97</ele>
        <time>2013-05-24T13:53:54</time>
      </trkpt>
      <trkpt lat="47.79359" lon="-2.79054">
        <ele>97</ele>
        <time>2013-05-24T13:54:04</time>
      </trkpt>
      <trkpt lat="47.79371" lon="-2.7906">
        <ele>94</ele>
        <time>2013-05-24T13:54:14</time>
      </trkpt>
      <trkpt lat="47.79377" lon="-2.79062">
        <ele>96</ele>
        <time>2013-05-24T13:54:24</time>
      </trkpt>
      <trkpt lat="47.79385" lon="-2.79061">
        <ele>97</ele>
        <time>2013-05-24T13:54:35</time>
      </trkpt>
      <trkpt lat="47.79393" lon="-2.79055">
        <ele>96</ele>
        <time>2013-05-24T13:54:45</time>
      </trkpt>
      <trkpt lat="47.794" lon="-2.79049">
        <ele>98</ele>
        <time>2013-05-24T13:54:55</time>
      </trkpt>
      <trkpt lat="47.79404" lon="-2.79039">
        <ele>99</ele>
        <time>2013-05-24T13:55:05</time>
      </trkpt>
      <trkpt lat="47.79405" lon="-2.79025">
        <ele>98</ele>
        <time>2013-05-24T13:55:15</time>
      </trkpt>
      <trkpt lat="47.79399" lon="-2.79009">
        <ele>100</ele>
        <time>2013-05-24T13:55:25</time>
      </trkpt>
      <trkpt lat="47.79393" lon="-2.78995">
        <ele>98</ele>
        <time>2013-05-24T13:55:35</time>
      </trkpt>
      <trkpt lat="47.79394" lon="-2.78988">
        <ele>99</ele>
        <time>2013-05-24T13:55:45</time>
      </trkpt>
      <trkpt lat="47.794" lon="-2.7899">
        <ele>104</ele>
        <time>2013-05-24T13:55:55</time>
      </trkpt>
      <trkpt lat="47.79406" lon="-2.78993">
        <ele>102</ele>
        <time>2013-05-24T13:56:05</time>
      </trkpt>
      <trkpt lat="47.79415" lon="-2.78994">
        <ele>103</ele>
        <time>2013-05-24T13:56:15</time>
      </trkpt>
      <trkpt lat="47.79424" lon="-2.78997">
        <ele>106</ele>
        <time>2013-05-24T13:56:25</time>
      </trkpt>
      <trkpt lat="47.7943" lon="-2.78995">
        <ele>106</ele>
        <time>2013-05-24T13:56:35</time>
      </trkpt>
      <trkpt lat="47.7944" lon="-2.78999">
        <ele>106</ele>
        <time>2013-05-24T13:56:46</time>
      </trkpt>
      <trkpt lat="47.7945" lon="-2.79001">
        <ele>107</ele>
        <time>2013-05-24T13:56:56</time>
      </trkpt>
      <trkpt lat="47.79459" lon="-2.79">
        <ele>107</ele>
        <time>2013-05-24T13:57:06</time>
      </trkpt>
      <trkpt lat="47.79468" lon="-2.79">
        <ele>109</ele>
        <time>2013-05-24T13:57:16</time>
      </trkpt>
      <trkpt lat="47.7948" lon="-2.79002">
        <ele>108</ele>
        <time>2013-05-24T13:57:26</time>
      </trkpt>
      <trkpt lat="47.79491" lon="-2.79004">
        <ele>109</ele>
        <time>2013-05-24T13:57:36</time>
      </trkpt>
      <trkpt lat="47.79504" lon="-2.79007">
        <ele>108</ele>
        <time>2013-05-24T13:57:46</time>
      </trkpt>
      <trkpt lat="47.79515" lon="-2.79007">
        <ele>107</ele>
        <time>2013-05-24T13:57:56</time>
      </trkpt>
      <trkpt lat="47.79526" lon="-2.79008">
        <ele>110</ele>
        <time>2013-05-24T13:58:06</time>
      </trkpt>
      <trkpt lat="47.79537" lon="-2.7901">
        <ele>111</ele>
        <time>2013-05-24T13:58:16</time>
      </trkpt>
      <trkpt lat="47.79549" lon="-2.79011">
        <ele>110</ele>
        <time>2013-05-24T13:58:26</time>
      </trkpt>
      <trkpt lat="47.79561" lon="-2.79012">
        <ele>112</ele>
        <time>2013-05-24T13:58:36</time>
      </trkpt>
      <trkpt lat="47.79574" lon="-2.79015">
        <ele>111</ele>
        <time>2013-05-24T13:58:46</time>
      </trkpt>
      <trkpt lat="47.79584" lon="-2.79017">
        <ele>113</ele>
        <time>2013-05-24T13:58:57</time>
      </trkpt>
      <trkpt lat="47.79594" lon="-2.79019">
        <ele>114</ele>
        <time>2013-05-24T13:59:07</time>
      </trkpt>
      <trkpt lat="47.79607" lon="-2.79023">
        <ele>113</ele>
        <time>2013-05-24T13:59:17</time>
      </trkpt>
      <trkpt lat="47.79619" lon="-2.79024">
        <ele>115</ele>
        <time>2013-05-24T13:59:27</time>
      </trkpt>
      <trkpt lat="47.7963" lon="-2.79026">
        <ele>117</ele>
        <time>2013-05-24T13:59:37</time>
      </trkpt>
      <trkpt lat="47.79645" lon="-2.79029">
        <ele>112</ele>
        <time>2013-05-24T13:59:47</time>
      </trkpt>
      <trkpt lat="47.79658" lon="-2.79034">
        <ele>114</ele>
        <time>2013-05-24T13:59:57</time>
      </trkpt>
      <trkpt lat="47.79671" lon="-2.79036">
        <ele>115</ele>
        <time>2013-05-24T14:00:07</time>
      </trkpt>
      <trkpt lat="47.79683" lon="-2.79042">
        <ele>116</ele>
        <time>2013-05-24T14:00:17</time>
      </trkpt>
      <trkpt lat="47.79695" lon="-2.79045">
        <ele>117</ele>
        <time>2013-05-24T14:00:27</time>
      </trkpt>
      <trkpt lat="47.79705" lon="-2.79048">
        <ele>116</ele>
        <time>2013-05-24T14:00:37</time>
      </trkpt>
      <trkpt lat="47.79717" lon="-2.7905">
        <ele>117</ele>
        <time>2013-05-24T14:00:47</time>
      </trkpt>
      <trkpt lat="47.79728" lon="-2.79054">
        <ele>116</ele>
        <time>2013-05-24T14:00:57</time>
      </trkpt>
      <trkpt lat="47.79737" lon="-2.79056">
        <ele>116</ele>
        <time>2013-05-24T14:01:07</time>
      </trkpt>
      <trkpt lat="47.79749" lon="-2.7906">
        <ele>118</ele>
        <time>2013-05-24T14:01:17</time>
      </trkpt>
      <trkpt lat="47.79763" lon="-2.79063">
        <ele>117</ele>
        <time>2013-05-24T14:01:27</time>
      </trkpt>
      <trkpt lat="47.79777" lon="-2.79068">
        <ele>119</ele>
        <time>2013-05-24T14:01:37</time>
      </trkpt>
      <trkpt lat="47.7979" lon="-2.7907">
        <ele>120</ele>
        <time>2013-05-24T14:01:48</time>
      </trkpt>
      <trkpt lat="47.79804" lon="-2.79075">
        <ele>122</ele>
        <time>2013-05-24T14:01:58</time>
      </trkpt>
      <trkpt lat="47.79815" lon="-2.7908">
        <ele>123</ele>
        <time>2013-05-24T14:02:08</time>
      </trkpt>
      <trkpt lat="47.79827" lon="-2.79082">
        <ele>122</ele>
        <time>2013-05-24T14:02:18</time>
      </trkpt>
      <trkpt lat="47.79838" lon="-2.79086">
        <ele>121</ele>
        <time>2013-05-24T14:02:28</time>
      </trkpt>
      <trkpt lat="47.79851" lon="-2.7909">
        <ele>122</ele>
        <time>2013-05-24T14:02:38</time>
      </trkpt>
      <trkpt lat="47.79863" lon="-2.79095">
        <ele>121</ele>
        <time>2013-05-24T14:02:48</time>
      </trkpt>
      <trkpt lat="47.79875" lon="-2.79102">
        <ele>121</ele>
        <time>2013-05-24T14:02:58</time>
      </trkpt>
      <trkpt lat="47.79887" lon="-2.79108">
        <ele>122</ele>
        <time>2013-05-24T14:03:08</time>
      </trkpt>
      <trkpt lat="47.79899" lon="-2.79115">
        <ele>122</ele>
        <time>2013-05-24T14:03:18</time>
      </trkpt>
      <trkpt lat="47.79911" lon="-2.79117">
        <ele>123</ele>
        <time>2013-05-24T14:03:28</time>
      </trkpt>
      <trkpt lat="47.79924" lon="-2.79122">
        <ele>121</ele>
        <time>2013-05-24T14:03:38</time>
      </trkpt>
      <trkpt lat="47.79937" lon="-2.79127">
        <ele>122</ele>
        <time>2013-05-24T14:03:49</time>
      </trkpt>
      <trkpt lat="47.7995" lon="-2.79131">
        <ele>123</ele>
        <time>2013-05-24T14:03:59</time>
      </trkpt>
      <trkpt lat="47.7996" lon="-2.79134">
        <ele>123</ele>
        <time>2013-05-24T14:04:09</time>
      </trkpt>
      <trkpt lat="47.79972" lon="-2.7914">
        <ele>122</ele>
        <time>2013-05-24T14:04:19</time>
      </trkpt>
      <trkpt lat="47.79983" lon="-2.79138">
        <ele>123</ele>
        <time>2013-05-24T14:04:29</time>
      </trkpt>
      <trkpt lat="47.79994" lon="-2.79127">
        <ele>125</ele>
        <time>2013-05-24T14:04:39</time>
      </trkpt>
      <trkpt lat="47.80005" lon="-2.79119">
        <ele>123</ele>
        <time>2013-05-24T14:04:49</time>
      </trkpt>
      <trkpt lat="47.80015" lon="-2.79113">
        <ele>125</ele>
        <time>2013-05-24T14:04:59</time>
      </trkpt>
      <trkpt lat="47.80024" lon="-2.79102">
        <ele>123</ele>
        <time>2013-05-24T14:05:09</time>
      </trkpt>
      <trkpt lat="47.80034" lon="-2.79091">
        <ele>124</ele>
        <time>2013-05-24T14:05:19</time>
      </trkpt>
      <trkpt lat="47.80045" lon="-2.79083">
        <ele>125</ele>
        <time>2013-05-24T14:05:29</time>
      </trkpt>
      <trkpt lat="47.80056" lon="-2.79076">
        <ele>124</ele>
        <time>2013-05-24T14:05:40</time>
      </trkpt>
      <trkpt lat="47.80066" lon="-2.79072">
        <ele>124</ele>
        <time>2013-05-24T14:05:50</time>
      </trkpt>
      <trkpt lat="47.80077" lon="-2.79067">
        <ele>121</ele>
        <time>2013-05-24T14:06:00</time>
      </trkpt>
      <trkpt lat="47.80089" lon="-2.79062">
        <ele>122</ele>
        <time>2013-05-24T14:06:10</time>
      </trkpt>
      <trkpt lat="47.80101" lon="-2.79053">
        <ele>124</ele>
        <time>2013-05-24T14:06:20</time>
      </trkpt>
      <trkpt lat="47.80113" lon="-2.79044">
        <ele>123</ele>
        <time>2013-05-24T14:06:30</time>
      </trkpt>
      <trkpt lat="47.80126" lon="-2.79038">
        <ele>123</ele>
        <time>2013-05-24T14:06:40</time>
      </trkpt>
      <trkpt lat="47.80136" lon="-2.79036">
        <ele>125</ele>
        <time>2013-05-24T14:06:50</time>
      </trkpt>
      <trkpt lat="47.80138" lon="-2.79054">
        <ele>124</ele>
        <time>2013-05-24T14:07:00</time>
      </trkpt>
      <trkpt lat="47.80141" lon="-2.79073">
        <ele>125</ele>
        <time>2013-05-24T14:07:10</time>
      </trkpt>
      <trkpt lat="47.80142" lon="-2.7909">
        <ele>125</ele>
        <time>2013-05-24T14:07:20</time>
      </trkpt>
      <trkpt lat="47.80143" lon="-2.79107">
        <ele>125</ele>
        <time>2013-05-24T14:07:30</time>
      </trkpt>
      <trkpt lat="47.80144" lon="-2.79124">
        <ele>124</ele>
        <time>2013-05-24T14:07:40</time>
      </trkpt>
      <trkpt lat="47.80145" lon="-2.7914">
        <ele>125</ele>
        <time>2013-05-24T14:07:51</time>
      </trkpt>
      <trkpt lat="47.80147" lon="-2.79157">
        <ele>125</ele>
        <time>2013-05-24T14:08:01</time>
      </trkpt>
      <trkpt lat="47.80148" lon="-2.79173">
        <ele>127</ele>
        <time>2013-05-24T14:08:11</time>
      </trkpt>
      <trkpt lat="47.80149" lon="-2.79191">
        <ele>124</ele>
        <time>2013-05-24T14:08:21</time>
      </trkpt>
      <trkpt lat="47.80151" lon="-2.7921">
        <ele>124</ele>
        <time>2013-05-24T14:08:31</time>
      </trkpt>
      <trkpt lat="47.80152" lon="-2.79227">
        <ele>126</ele>
        <time>2013-05-24T14:08:41</time>
      </trkpt>
      <trkpt lat="47.80153" lon="-2.79244">
        <ele>124</ele>
        <time>2013-05-24T14:08:51</time>
      </trkpt>
      <trkpt lat="47.80153" lon="-2.7926">
        <ele>123</ele>
        <time>2013-05-24T14:09:01</time>
      </trkpt>
      <trkpt lat="47.80154" lon="-2.79276">
        <ele>123</ele>
        <time>2013-05-24T14:09:11</time>
      </trkpt>
      <trkpt lat="47.80155" lon="-2.79295">
        <ele>124</ele>
        <time>2013-05-24T14:09:21</time>
      </trkpt>
      <trkpt lat="47.80159" lon="-2.79303">
        <ele>124</ele>
        <time>2013-05-24T14:09:31</time>
      </trkpt>
      <trkpt lat="47.80158" lon="-2.79304">
        <ele>123</ele>
        <time>2013-05-24T14:09:41</time>
      </trkpt>
      <trkpt lat="47.80159" lon="-2.79304">
        <ele>123</ele>
        <time>2013-05-24T14:09:51</time>
      </trkpt>
      <trkpt lat="47.8017" lon="-2.79309">
        <ele>123</ele>
        <time>2013-05-24T14:10:01</time>
      </trkpt>
      <trkpt lat="47.80182" lon="-2.79313">
        <ele>121</ele>
        <time>2013-05-24T14:10:11</time>
      </trkpt>
      <trkpt lat="47.80194" lon="-2.79318">
        <ele>121</ele>
        <time>2013-05-24T14:10:21</time>
      </trkpt>
      <trkpt lat="47.80205" lon="-2.79324">
        <ele>122</ele>
        <time>2013-05-24T14:10:32</time>
      </trkpt>
      <trkpt lat="47.80217" lon="-2.7933">
        <ele>121</ele>
        <time>2013-05-24T14:10:42</time>
      </trkpt>
      <trkpt lat="47.80228" lon="-2.79338">
        <ele>121</ele>
        <time>2013-05-24T14:10:52</time>
      </trkpt>
      <trkpt lat="47.80238" lon="-2.79348">
        <ele>123</ele>
        <time>2013-05-24T14:11:02</time>
      </trkpt>
      <trkpt lat="47.80251" lon="-2.79359">
        <ele>123</ele>
        <time>2013-05-24T14:11:12</time>
      </trkpt>
      <trkpt lat="47.80262" lon="-2.79369">
        <ele>123</ele>
        <time>2013-05-24T14:11:22</time>
      </trkpt>
      <trkpt lat="47.80272" lon="-2.79379">
        <ele>123</ele>
        <time>2013-05-24T14:11:32</time>
      </trkpt>
      <trkpt lat="47.80282" lon="-2.79388">
        <ele>124</ele>
        <time>2013-05-24T14:11:42</time>
      </trkpt>
      <trkpt lat="47.80292" lon="-2.79395">
        <ele>123</ele>
        <time>2013-05-24T14:11:52</time>
      </trkpt>
      <trkpt lat="47.80302" lon="-2.79401">
        <ele>124</ele>
        <time>2013-05-24T14:12:03</time>
      </trkpt>
      <trkpt lat="47.80314" lon="-2.79407">
        <ele>125</ele>
        <time>2013-05-24T14:12:13</time>
      </trkpt>
      <trkpt lat="47.80324" lon="-2.79414">
        <ele>126</ele>
        <time>2013-05-24T14:12:23</time>
      </trkpt>
      <trkpt lat="47.80334" lon="-2.79423">
        <ele>127</ele>
        <time>2013-05-24T14:12:33</time>
      </trkpt>
      <trkpt lat="47.80342" lon="-2.79437">
        <ele>125</ele>
        <time>2013-05-24T14:12:43</time>
      </trkpt>
      <trkpt lat="47.80348" lon="-2.79453">
        <ele>127</ele>
        <time>2013-05-24T14:12:53</time>
      </trkpt>
      <trkpt lat="47.80354" lon="-2.79471">
        <ele>127</ele>
        <time>2013-05-24T14:13:03</time>
      </trkpt>
      <trkpt lat="47.80359" lon="-2.79487">
        <ele>127</ele>
        <time>2013-05-24T14:13:13</time>
      </trkpt>
      <trkpt lat="47.80365" lon="-2.79502">
        <ele>126</ele>
        <time>2013-05-24T14:13:23</time>
      </trkpt>
      <trkpt lat="47.8037" lon="-2.7952">
        <ele>125</ele>
        <time>2013-05-24T14:13:33</time>
      </trkpt>
      <trkpt lat="47.80376" lon="-2.79537">
        <ele>124</ele>
        <time>2013-05-24T14:13:43</time>
      </trkpt>
      <trkpt lat="47.80381" lon="-2.79552">
        <ele>124</ele>
        <time>2013-05-24T14:13:53</time>
      </trkpt>
      <trkpt lat="47.80387" lon="-2.79568">
        <ele>123</ele>
        <time>2013-05-24T14:14:03</time>
      </trkpt>
      <trkpt lat="47.8039" lon="-2.79579">
        <ele>122</ele>
        <time>2013-05-24T14:14:13</time>
      </trkpt>
      <trkpt lat="47.80394" lon="-2.79587">
        <ele>121</ele>
        <time>2013-05-24T14:14:24</time>
      </trkpt>
      <trkpt lat="47.80399" lon="-2.79597">
        <ele>121</ele>
        <time>2013-05-24T14:14:34</time>
      </trkpt>
      <trkpt lat="47.80408" lon="-2.79609">
        <ele>120</ele>
        <time>2013-05-24T14:14:44</time>
      </trkpt>
      <trkpt lat="47.80418" lon="-2.79621">
        <ele>117</ele>
        <time>2013-05-24T14:14:54</time>
      </trkpt>
      <trkpt lat="47.80428" lon="-2.7963">
        <ele>117</ele>
        <time>2013-05-24T14:15:04</time>
      </trkpt>
      <trkpt lat="47.8044" lon="-2.79641">
        <ele>117</ele>
        <time>2013-05-24T14:15:14</time>
      </trkpt>
      <trkpt lat="47.8045" lon="-2.79652">
        <ele>114</ele>
        <time>2013-05-24T14:15:24</time>
      </trkpt>
      <trkpt lat="47.8046" lon="-2.79662">
        <ele>112</ele>
        <time>2013-05-24T14:15:34</time>
      </trkpt>
      <trkpt lat="47.8047" lon="-2.79676">
        <ele>113</ele>
        <time>2013-05-24T14:15:44</time>
      </trkpt>
      <trkpt lat="47.80478" lon="-2.79691">
        <ele>111</ele>
        <time>2013-05-24T14:15:54</time>
      </trkpt>
      <trkpt lat="47.80484" lon="-2.79704">
        <ele>113</ele>
        <time>2013-05-24T14:16:04</time>
      </trkpt>
      <trkpt lat="47.80491" lon="-2.7972">
        <ele>112</ele>
        <time>2013-05-24T14:16:14</time>
      </trkpt>
      <trkpt lat="47.80497" lon="-2.79733">
        <ele>112</ele>
        <time>2013-05-24T14:16:24</time>
      </trkpt>
      <trkpt lat="47.80505" lon="-2.79746">
        <ele>112</ele>
        <time>2013-05-24T14:16:35</time>
      </trkpt>
      <trkpt lat="47.80513" lon="-2.7976">
        <ele>112</ele>
        <time>2013-05-24T14:16:45</time>
      </trkpt>
      <trkpt lat="47.80521" lon="-2.79775">
        <ele>110</ele>
        <time>2013-05-24T14:16:55</time>
      </trkpt>
      <trkpt lat="47.8053" lon="-2.79791">
        <ele>111</ele>
        <time>2013-05-24T14:17:05</time>
      </trkpt>
      <trkpt lat="47.80538" lon="-2.79807">
        <ele>110</ele>
        <time>2013-05-24T14:17:15</time>
      </trkpt>
      <trkpt lat="47.80546" lon="-2.7982">
        <ele>110</ele>
        <time>2013-05-24T14:17:25</time>
      </trkpt>
      <trkpt lat="47.80555" lon="-2.79835">
        <ele>107</ele>
        <time>2013-05-24T14:17:35</time>
      </trkpt>
      <trkpt lat="47.80562" lon="-2.79849">
        <ele>107</ele>
        <time>2013-05-24T14:17:45</time>
      </trkpt>
      <trkpt lat="47.80571" lon="-2.79864">
        <ele>107</ele>
        <time>2013-05-24T14:17:55</time>
      </trkpt>
      <trkpt lat="47.80579" lon="-2.79878">
        <ele>106</ele>
        <time>2013-05-24T14:18:05</time>
      </trkpt>
      <trkpt lat="47.80587" lon="-2.79893">
        <ele>107</ele>
        <time>2013-05-24T14:18:15</time>
      </trkpt>
      <trkpt lat="47.80593" lon="-2.79907">
        <ele>107</ele>
        <time>2013-05-24T14:18:25</time>
      </trkpt>
      <trkpt lat="47.80601" lon="-2.79925">
        <ele>107</ele>
        <time>2013-05-24T14:18:35</time>
      </trkpt>
      <trkpt lat="47.80608" lon="-2.79941">
        <ele>107</ele>
        <time>2013-05-24T14:18:45</time>
      </trkpt>
      <trkpt lat="47.80616" lon="-2.79958">
        <ele>107</ele>
        <time>2013-05-24T14:18:55</time>
      </trkpt>
      <trkpt lat="47.80623" lon="-2.79974">
        <ele>107</ele>
        <time>2013-05-24T14:19:05</time>
      </trkpt>
      <trkpt lat="47.80631" lon="-2.79989">
        <ele>107</ele>
        <time>2013-05-24T14:19:16</time>
      </trkpt>
      <trkpt lat="47.80643" lon="-2.80001">
        <ele>108</ele>
        <time>2013-05-24T14:19:26</time>
      </trkpt>
      <trkpt lat="47.80654" lon="-2.80011">
        <ele>107</ele>
        <time>2013-05-24T14:19:36</time>
      </trkpt>
      <trkpt lat="47.80666" lon="-2.80019">
        <ele>106</ele>
        <time>2013-05-24T14:19:46</time>
      </trkpt>
      <trkpt lat="47.80676" lon="-2.80031">
        <ele>108</ele>
        <time>2013-05-24T14:19:56</time>
      </trkpt>
      <trkpt lat="47.80684" lon="-2.80042">
        <ele>104</ele>
        <time>2013-05-24T14:20:06</time>
      </trkpt>
      <trkpt lat="47.8069" lon="-2.80049">
        <ele>106</ele>
        <time>2013-05-24T14:20:16</time>
      </trkpt>
      <trkpt lat="47.80696" lon="-2.8006">
        <ele>108</ele>
        <time>2013-05-24T14:20:26</time>
      </trkpt>
      <trkpt lat="47.80705" lon="-2.80074">
        <ele>105</ele>
        <time>2013-05-24T14:20:36</time>
      </trkpt>
      <trkpt lat="47.80715" lon="-2.80085">
        <ele>105</ele>
        <time>2013-05-24T14:20:46</time>
      </trkpt>
      <trkpt lat="47.80724" lon="-2.80099">
        <ele>105</ele>
        <time>2013-05-24T14:20:56</time>
      </trkpt>
      <trkpt lat="47.80731" lon="-2.80112">
        <ele>107</ele>
        <time>2013-05-24T14:21:06</time>
      </trkpt>
      <trkpt lat="47.8074" lon="-2.80126">
        <ele>105</ele>
        <time>2013-05-24T14:21:17</time>
      </trkpt>
      <trkpt lat="47.8075" lon="-2.80141">
        <ele>105</ele>
        <time>2013-05-24T14:21:27</time>
      </trkpt>
      <trkpt lat="47.80757" lon="-2.80155">
        <ele>104</ele>
        <time>2013-05-24T14:21:37</time>
      </trkpt>
      <trkpt lat="47.80765" lon="-2.8017">
        <ele>104</ele>
        <time>2013-05-24T14:21:47</time>
      </trkpt>
      <trkpt lat="47.80774" lon="-2.80185">
        <ele>106</ele>
        <time>2013-05-24T14:21:57</time>
      </trkpt>
      <trkpt lat="47.80782" lon="-2.80201">
        <ele>104</ele>
        <time>2013-05-24T14:22:07</time>
      </trkpt>
      <trkpt lat="47.8079" lon="-2.80217">
        <ele>105</ele>
        <time>2013-05-24T14:22:17</time>
      </trkpt>
      <trkpt lat="47.80798" lon="-2.80234">
        <ele>105</ele>
        <time>2013-05-24T14:22:27</time>
      </trkpt>
      <trkpt lat="47.80805" lon="-2.80249">
        <ele>102</ele>
        <time>2013-05-24T14:22:37</time>
      </trkpt>
      <trkpt lat="47.80812" lon="-2.80265">
        <ele>102</ele>
        <time>2013-05-24T14:22:47</time>
      </trkpt>
      <trkpt lat="47.80817" lon="-2.80279">
        <ele>102</ele>
        <time>2013-05-24T14:22:57</time>
      </trkpt>
      <trkpt lat="47.80825" lon="-2.80298">
        <ele>102</ele>
        <time>2013-05-24T14:23:07</time>
      </trkpt>
      <trkpt lat="47.80831" lon="-2.80313">
        <ele>102</ele>
        <time>2013-05-24T14:23:17</time>
      </trkpt>
      <trkpt lat="47.80838" lon="-2.80328">
        <ele>101</ele>
        <time>2013-05-24T14:23:28</time>
      </trkpt>
      <trkpt lat="47.80845" lon="-2.80344">
        <ele>105</ele>
        <time>2013-05-24T14:23:38</time>
      </trkpt>
      <trkpt lat="47.80854" lon="-2.80362">
        <ele>104</ele>
        <time>2013-05-24T14:23:48</time>
      </trkpt>
      <trkpt lat="47.80862" lon="-2.80377">
        <ele>101</ele>
        <time>2013-05-24T14:23:58</time>
      </trkpt>
      <trkpt lat="47.80871" lon="-2.8039">
        <ele>103</ele>
        <time>2013-05-24T14:24:08</time>
      </trkpt>
      <trkpt lat="47.8088" lon="-2.80403">
        <ele>104</ele>
        <time>2013-05-24T14:24:18</time>
      </trkpt>
      <trkpt lat="47.8089" lon="-2.80415">
        <ele>100</ele>
        <time>2013-05-24T14:24:28</time>
      </trkpt>
      <trkpt lat="47.80901" lon="-2.8043">
        <ele>101</ele>
        <time>2013-05-24T14:24:38</time>
      </trkpt>
      <trkpt lat="47.8091" lon="-2.80444">
        <ele>101</ele>
        <time>2013-05-24T14:24:48</time>
      </trkpt>
      <trkpt lat="47.80921" lon="-2.80458">
        <ele>104</ele>
        <time>2013-05-24T14:24:58</time>
      </trkpt>
      <trkpt lat="47.80932" lon="-2.80471">
        <ele>102</ele>
        <time>2013-05-24T14:25:08</time>
      </trkpt>
      <trkpt lat="47.80942" lon="-2.80485">
        <ele>102</ele>
        <time>2013-05-24T14:25:18</time>
      </trkpt>
      <trkpt lat="47.80952" lon="-2.80498">
        <ele>107</ele>
        <time>2013-05-24T14:25:28</time>
      </trkpt>
      <trkpt lat="47.80963" lon="-2.8051">
        <ele>105</ele>
        <time>2013-05-24T14:25:38</time>
      </trkpt>
      <trkpt lat="47.80974" lon="-2.80525">
        <ele>103</ele>
        <time>2013-05-24T14:25:48</time>
      </trkpt>
      <trkpt lat="47.80983" lon="-2.80537">
        <ele>102</ele>
        <time>2013-05-24T14:25:59</time>
      </trkpt>
      <trkpt lat="47.80992" lon="-2.80549">
        <ele>104</ele>
        <time>2013-05-24T14:26:09</time>
      </trkpt>
      <trkpt lat="47.81001" lon="-2.80562">
        <ele>104</ele>
        <time>2013-05-24T14:26:19</time>
      </trkpt>
      <trkpt lat="47.8101" lon="-2.80575">
        <ele>103</ele>
        <time>2013-05-24T14:26:29</time>
      </trkpt>
      <trkpt lat="47.8102" lon="-2.80587">
        <ele>106</ele>
        <time>2013-05-24T14:26:39</time>
      </trkpt>
      <trkpt lat="47.81028" lon="-2.80598">
        <ele>106</ele>
        <time>2013-05-24T14:26:49</time>
      </trkpt>
      <trkpt lat="47.81036" lon="-2.80611">
        <ele>102</ele>
        <time>2013-05-24T14:26:59</time>
      </trkpt>
      <trkpt lat="47.81045" lon="-2.80624">
        <ele>103</ele>
        <time>2013-05-24T14:27:09</time>
      </trkpt>
      <trkpt lat="47.81054" lon="-2.80638">
        <ele>105</ele>
        <time>2013-05-24T14:27:19</time>
      </trkpt>
      <trkpt lat="47.81066" lon="-2.80644">
        <ele>106</ele>
        <time>2013-05-24T14:27:29</time>
      </trkpt>
      <trkpt lat="47.81078" lon="-2.80641">
        <ele>107</ele>
        <time>2013-05-24T14:27:39</time>
      </trkpt>
      <trkpt lat="47.81089" lon="-2.80638">
        <ele>107</ele>
        <time>2013-05-24T14:27:50</time>
      </trkpt>
      <trkpt lat="47.81102" lon="-2.80636">
        <ele>107</ele>
        <time>2013-05-24T14:28:00</time>
      </trkpt>
      <trkpt lat="47.81115" lon="-2.80633">
        <ele>108</ele>
        <time>2013-05-24T14:28:10</time>
      </trkpt>
      <trkpt lat="47.81129" lon="-2.80631">
        <ele>107</ele>
        <time>2013-05-24T14:28:20</time>
      </trkpt>
      <trkpt lat="47.81141" lon="-2.80629">
        <ele>106</ele>
        <time>2013-05-24T14:28:30</time>
      </trkpt>
      <trkpt lat="47.81155" lon="-2.80626">
        <ele>110</ele>
        <time>2013-05-24T14:28:40</time>
      </trkpt>
      <trkpt lat="47.81167" lon="-2.80623">
        <ele>108</ele>
        <time>2013-05-24T14:28:50</time>
      </trkpt>
      <trkpt lat="47.81178" lon="-2.80621">
        <ele>108</ele>
        <time>2013-05-24T14:29:00</time>
      </trkpt>
      <trkpt lat="47.81189" lon="-2.80617">
        <ele>108</ele>
        <time>2013-05-24T14:29:10</time>
      </trkpt>
      <trkpt lat="47.81199" lon="-2.80612">
        <ele>112</ele>
        <time>2013-05-24T14:29:20</time>
      </trkpt>
      <trkpt lat="47.81211" lon="-2.80611">
        <ele>109</ele>
        <time>2013-05-24T14:29:30</time>
      </trkpt>
      <trkpt lat="47.81222" lon="-2.80608">
        <ele>109</ele>
        <time>2013-05-24T14:29:40</time>
      </trkpt>
      <trkpt lat="47.81232" lon="-2.80607">
        <ele>109</ele>
        <time>2013-05-24T14:29:51</time>
      </trkpt>
      <trkpt lat="47.81244" lon="-2.80606">
        <ele>109</ele>
        <time>2013-05-24T14:30:01</time>
      </trkpt>
      <trkpt lat="47.81254" lon="-2.80607">
        <ele>110</ele>
        <time>2013-05-24T14:30:11</time>
      </trkpt>
      <trkpt lat="47.81265" lon="-2.80604">
        <ele>110</ele>
        <time>2013-05-24T14:30:21</time>
      </trkpt>
      <trkpt lat="47.81276" lon="-2.80603">
        <ele>111</ele>
        <time>2013-05-24T14:30:31</time>
      </trkpt>
      <trkpt lat="47.81289" lon="-2.80601">
        <ele>110</ele>
        <time>2013-05-24T14:30:41</time>
      </trkpt>
      <trkpt lat="47.81301" lon="-2.80598">
        <ele>109</ele>
        <time>2013-05-24T14:30:51</time>
      </trkpt>
      <trkpt lat="47.81313" lon="-2.80593">
        <ele>110</ele>
        <time>2013-05-24T14:31:01</time>
      </trkpt>
      <trkpt lat="47.81322" lon="-2.80591">
        <ele>109</ele>
        <time>2013-05-24T14:31:11</time>
      </trkpt>
      <trkpt lat="47.81339" lon="-2.80586">
        <ele>108</ele>
        <time>2013-05-24T14:31:21</time>
      </trkpt>
      <trkpt lat="47.81351" lon="-2.80583">
        <ele>108</ele>
        <time>2013-05-24T14:31:31</time>
      </trkpt>
      <trkpt lat="47.81364" lon="-2.80579">
        <ele>108</ele>
        <time>2013-05-24T14:31:41</time>
      </trkpt>
      <trkpt lat="47.81379" lon="-2.80575">
        <ele>106</ele>
        <time>2013-05-24T14:31:51</time>
      </trkpt>
      <trkpt lat="47.81391" lon="-2.8057">
        <ele>107</ele>
        <time>2013-05-24T14:32:01</time>
      </trkpt>
      <trkpt lat="47.81403" lon="-2.80568">
        <ele>105</ele>
        <time>2013-05-24T14:32:11</time>
      </trkpt>
      <trkpt lat="47.81415" lon="-2.80569">
        <ele>106</ele>
        <time>2013-05-24T14:32:21</time>
      </trkpt>
      <trkpt lat="47.81423" lon="-2.80575">
        <ele>104</ele>
        <time>2013-05-24T14:32:31</time>
      </trkpt>
      <trkpt lat="47.81432" lon="-2.80577">
        <ele>104</ele>
        <time>2013-05-24T14:32:41</time>
      </trkpt>
      <trkpt lat="47.81446" lon="-2.80576">
        <ele>104</ele>
        <time>2013-05-24T14:32:52</time>
      </trkpt>
      <trkpt lat="47.81459" lon="-2.80575">
        <ele>102</ele>
        <time>2013-05-24T14:33:02</time>
      </trkpt>
      <trkpt lat="47.8147" lon="-2.80576">
        <ele>97</ele>
        <time>2013-05-24T14:33:12</time>
      </trkpt>
      <trkpt lat="47.81483" lon="-2.80584">
        <ele>100</ele>
        <time>2013-05-24T14:33:22</time>
      </trkpt>
      <trkpt lat="47.81489" lon="-2.80598">
        <ele>99</ele>
        <time>2013-05-24T14:33:32</time>
      </trkpt>
      <trkpt lat="47.81497" lon="-2.80611">
        <ele>97</ele>
        <time>2013-05-24T14:33:42</time>
      </trkpt>
      <trkpt lat="47.81509" lon="-2.80621">
        <ele>99</ele>
        <time>2013-05-24T14:33:52</time>
      </trkpt>
      <trkpt lat="47.81523" lon="-2.80629">
        <ele>100</ele>
        <time>2013-05-24T14:34:02</time>
      </trkpt>
      <trkpt lat="47.81534" lon="-2.8064">
        <ele>98</ele>
        <time>2013-05-24T14:34:12</time>
      </trkpt>
      <trkpt lat="47.81541" lon="-2.80649">
        <ele>100</ele>
        <time>2013-05-24T14:34:22</time>
      </trkpt>
      <trkpt lat="47.81547" lon="-2.80659">
        <ele>103</ele>
        <time>2013-05-24T14:34:32</time>
      </trkpt>
      <trkpt lat="47.81551" lon="-2.80667">
        <ele>102</ele>
        <time>2013-05-24T14:34:42</time>
      </trkpt>
      <trkpt lat="47.81551" lon="-2.80681">
        <ele>101</ele>
        <time>2013-05-24T14:34:52</time>
      </trkpt>
      <trkpt lat="47.81551" lon="-2.80689">
        <ele>104</ele>
        <time>2013-05-24T14:35:03</time>
      </trkpt>
      <trkpt lat="47.8155" lon="-2.80688">
        <ele>103</ele>
        <time>2013-05-24T14:35:13</time>
      </trkpt>
      <trkpt lat="47.81553" lon="-2.80693">
        <ele>103</ele>
        <time>2013-05-24T14:35:23</time>
      </trkpt>
      <trkpt lat="47.81558" lon="-2.80699">
        <ele>105</ele>
        <time>2013-05-24T14:35:33</time>
      </trkpt>
      <trkpt lat="47.81569" lon="-2.80706">
        <ele>103</ele>
        <time>2013-05-24T14:35:43</time>
      </trkpt>
      <trkpt lat="47.8158" lon="-2.80712">
        <ele>102</ele>
        <time>2013-05-24T14:35:53</time>
      </trkpt>
      <trkpt lat="47.81593" lon="-2.80719">
        <ele>105</ele>
        <time>2013-05-24T14:36:03</time>
      </trkpt>
      <trkpt lat="47.81604" lon="-2.80729">
        <ele>103</ele>
        <time>2013-05-24T14:36:13</time>
      </trkpt>
      <trkpt lat="47.81615" lon="-2.80738">
        <ele>107</ele>
        <time>2013-05-24T14:36:23</time>
      </trkpt>
      <trkpt lat="47.81626" lon="-2.80747">
        <ele>106</ele>
        <time>2013-05-24T14:36:33</time>
      </trkpt>
      <trkpt lat="47.81638" lon="-2.80756">
        <ele>105</ele>
        <time>2013-05-24T14:36:43</time>
      </trkpt>
      <trkpt lat="47.81648" lon="-2.80766">
        <ele>108</ele>
        <time>2013-05-24T14:36:53</time>
      </trkpt>
      <trkpt lat="47.81659" lon="-2.80774">
        <ele>108</ele>
        <time>2013-05-24T14:37:03</time>
      </trkpt>
      <trkpt lat="47.8167" lon="-2.80783">
        <ele>107</ele>
        <time>2013-05-24T14:37:13</time>
      </trkpt>
      <trkpt lat="47.81682" lon="-2.80792">
        <ele>108</ele>
        <time>2013-05-24T14:37:23</time>
      </trkpt>
      <trkpt lat="47.81693" lon="-2.808">
        <ele>107</ele>
        <time>2013-05-24T14:37:33</time>
      </trkpt>
      <trkpt lat="47.81705" lon="-2.80809">
        <ele>106</ele>
        <time>2013-05-24T14:37:44</time>
      </trkpt>
      <trkpt lat="47.81717" lon="-2.80819">
        <ele>106</ele>
        <time>2013-05-24T14:37:54</time>
      </trkpt>
      <trkpt lat="47.81727" lon="-2.80828">
        <ele>103</ele>
        <time>2013-05-24T14:38:04</time>
      </trkpt>
      <trkpt lat="47.81734" lon="-2.80842">
        <ele>103</ele>
        <time>2013-05-24T14:38:14</time>
      </trkpt>
      <trkpt lat="47.81739" lon="-2.80851">
        <ele>104</ele>
        <time>2013-05-24T14:38:24</time>
      </trkpt>
      <trkpt lat="47.81736" lon="-2.80859">
        <ele>104</ele>
        <time>2013-05-24T14:38:34</time>
      </trkpt>
      <trkpt lat="47.81736" lon="-2.80877">
        <ele>105</ele>
        <time>2013-05-24T14:38:44</time>
      </trkpt>
      <trkpt lat="47.81743" lon="-2.80892">
        <ele>102</ele>
        <time>2013-05-24T14:38:54</time>
      </trkpt>
      <trkpt lat="47.81751" lon="-2.80891">
        <ele>100</ele>
        <time>2013-05-24T14:39:04</time>
      </trkpt>
      <trkpt lat="47.81764" lon="-2.80889">
        <ele>101</ele>
        <time>2013-05-24T14:39:14</time>
      </trkpt>
      <trkpt lat="47.81777" lon="-2.80887">
        <ele>100</ele>
        <time>2013-05-24T14:39:24</time>
      </trkpt>
      <trkpt lat="47.81789" lon="-2.80885">
        <ele>99</ele>
        <time>2013-05-24T14:39:34</time>
      </trkpt>
      <trkpt lat="47.81798" lon="-2.80888">
        <ele>98</ele>
        <time>2013-05-24T14:39:44</time>
      </trkpt>
      <trkpt lat="47.81799" lon="-2.80905">
        <ele>99</ele>
        <time>2013-05-24T14:39:54</time>
      </trkpt>
      <trkpt lat="47.81802" lon="-2.80921">
        <ele>99</ele>
        <time>2013-05-24T14:40:04</time>
      </trkpt>
      <trkpt lat="47.81802" lon="-2.80941">
        <ele>100</ele>
        <time>2013-05-24T14:40:14</time>
      </trkpt>
      <trkpt lat="47.81806" lon="-2.8095">
        <ele>98</ele>
        <time>2013-05-24T14:40:24</time>
      </trkpt>
      <trkpt lat="47.81812" lon="-2.80952">
        <ele>98</ele>
        <time>2013-05-24T14:40:35</time>
      </trkpt>
      <trkpt lat="47.81819" lon="-2.80957">
        <ele>53</ele>
        <time>2013-05-24T14:40:45</time>
      </trkpt>
      <trkpt lat="47.81819" lon="-2.80957">
        <ele>53</ele>
        <time>2013-05-24T14:40:45</time>
      </trkpt>
    </trkseg>
  </trk>
</gpx>